• Join FlightAware (Why Join?)
  • Login
  • US Flag 
08:55PM EDT


 

Airport Tracker/Info


-or-


 

Live Flight TrackerFlight Track Log ✈ UAL48 ✈ 29-Apr-2013 ✈ KEWR - VABB / BOM

Flight Track Log - Related Links

Times and Time Zones

All times are in EDT time to prevent confusion due to time zone crossing. See the UAL48 flight status page for this flight to view local times or setup timezone preferences in your user account.

Time Position Orientation Groundspeed Altitude Reporting Facility
EDT Latitude Longitude Course Direction KTS MPH feet Rate Location/Type
09:04PM 40.6760 -74.1791 206° Southwest 169 194 300  Level FlightAware ADS-B
09:05PM 40.6686 -74.1834 204° Southwest 173 199 700 2,580 Climbing FlightAware ADS-B
09:05PM 40.6643 -74.1844 190° South 165 190 1,000 1,980 Climbing FlightAware ADS-B
09:05PM 40.6529 -74.1857 185° South 173 199 1,400 1,380 Climbing FlightAware ADS-B
09:05PM 40.6478 -74.1879 198° South 183 211 1,500 1,200 Climbing FlightAware ADS-B
09:05PM 40.6450 -74.1899 208° Southwest 186 214 1,600 1,560 Climbing FlightAware ADS-B
09:05PM 40.6330 -74.1986 209° Southwest 196 226 2,000 2,040 Climbing FlightAware ADS-B
09:06PM 40.6248 -74.2058 214° Southwest 192 221 2,500 2,760 Climbing FlightAware ADS-B
09:06PM 40.6229 -74.2082 224° Southwest 189 217 2,700 1,980 Climbing FlightAware ADS-B
09:06PM 40.6201 -74.2126 230° Southwest 193 222 2,800 720 Climbing FlightAware ADS-B
09:06PM 40.6185 -74.2160 238° Southwest 203 234 2,800  Level FlightAware ADS-B
09:06PM 40.6166 -74.2229 250° West 215 247 2,800 420 Level FlightAware ADS-B
09:06PM 40.6162 -74.2346 267° West 227 261 2,900 780 Climbing FlightAware ADS-B
09:06PM 40.6176 -74.2432 282° West 242 278 3,000 480 Climbing FlightAware ADS-B
09:06PM 40.6203 -74.2512 294° West 254 292 3,000 660 Level FlightAware ADS-B
09:06PM 40.6223 -74.2552 303° West 260 299 3,100 1,500 Climbing FlightAware ADS-B
09:06PM 40.6265 -74.2618 310° West 264 304 3,200 1,380 Climbing FlightAware ADS-B
09:07PM 40.6339 -74.2697 321° Northwest 273 314 3,400 1,380 Climbing FlightAware ADS-B
09:07PM 40.6402 -74.2739 333° Northwest 279 321 3,500 1,800 Climbing FlightAware ADS-B
09:07PM 40.6593 -74.2776 352° North 283 326 4,000 2,160 Climbing FlightAware ADS-B
09:07PM 40.6810 -74.2675 19° North 282 325 4,700 2,640 Climbing FlightAware ADS-B
09:07PM 40.6881 -74.2593 41° Northeast 278 320 5,100 3,000 Climbing FlightAware ADS-B
09:07PM 40.6938 -74.2504 50° Northeast 275 316 5,400 2,520 Climbing FlightAware ADS-B
09:07PM 40.6985 -74.2419 54° Northeast 274 315 5,700 2,520 Climbing FlightAware ADS-B
09:08PM 40.7130 -74.2155 54° Northeast 277 319 6,500 2,520 Climbing FlightAware ADS-B
09:08PM 40.7271 -74.1896 54° Northeast 279 321 7,300 2,460 Climbing FlightAware ADS-B
09:08PM 40.7363 -74.1724 55° Northeast 281 323 7,800 2,280 Climbing FlightAware ADS-B
09:08PM 40.7367 -74.1716 57° Northeast 281 323 7,800 2,220 Level FlightAware ADS-B
09:09PM 40.7476 -74.1505 56° Northeast 283 326 8,400 2,280 Climbing FlightAware ADS-B
09:09PM 40.7499 -74.1461 55° Northeast 283 326 8,500 2,400 Climbing FlightAware ADS-B
09:09PM 40.7593 -74.1281 55° Northeast 285 328 9,000 1,980 Climbing FlightAware ADS-B
09:09PM 40.7612 -74.1245 55° Northeast 285 328 9,000 1,860 Level FlightAware ADS-B
09:09PM 40.7708 -74.1058 56° Northeast 290 334 9,500 1,980 Climbing FlightAware ADS-B
09:09PM 40.7746 -74.0984 56° Northeast 293 337 9,600 780 Climbing FlightAware ADS-B
09:09PM 40.7829 -74.0820 56° Northeast 304 350 9,700 360 Climbing FlightAware ADS-B
09:09PM 40.7875 -74.0729 56° Northeast 312 359 9,700  Level FlightAware ADS-B
09:10PM 40.7966 -74.0550 56° Northeast 327 376 9,700  Level FlightAware ADS-B
09:10PM 40.8001 -74.0481 56° Northeast 333 383 9,700  Level FlightAware ADS-B
09:10PM 40.8100 -74.0284 56° Northeast 348 400 9,700  Level FlightAware ADS-B
09:10PM 40.8171 -74.0144 56° Northeast 353 406 9,700  Level FlightAware ADS-B
09:10PM 40.8238 -74.0011 56° Northeast 355 409 9,700  Level FlightAware ADS-B
09:10PM 40.8323 -73.9845 56° Northeast 356 410 9,700  Level FlightAware ADS-B
09:10PM 40.8381 -73.9731 56° Northeast 357 411 9,700  Level FlightAware ADS-B
09:11PM 40.8480 -73.9537 56° Northeast 357 411 9,700 360 Level FlightAware ADS-B
09:11PM 40.8520 -73.9460 56° Northeast 356 410 9,800  Climbing FlightAware ADS-B
09:11PM 40.8667 -73.9173 56° Northeast 357 411 9,700 -360 Descending FlightAware ADS-B
09:11PM 40.8687 -73.9134 56° Northeast 356 410 9,700  Level FlightAware ADS-B
09:11PM 40.8810 -73.8895 56° Northeast 355 409 9,700  Level FlightAware ADS-B
09:12PM 40.8988 -73.8555 55° Northeast 356 410 9,700 720 Level FlightAware ADS-B
09:12PM 40.9313 -73.8036 50° Northeast 359 413 10,300 1,560 Climbing FlightAware ADS-B
09:13PM 40.9648 -73.7538 48° Northeast 365 420 11,300 1,920 Climbing FlightAware ADS-B
09:13PM 40.9950 -73.7100 48° Northeast 368 423 12,300 2,040 Climbing FlightAware
09:13PM 41.0242 -73.6669 48° Northeast 372 428 13,100 2,040 Climbing FlightAware ADS-B
09:14PM 41.0609 -73.6132 48° Northeast 380 437 14,100 1,800 Climbing FlightAware ADS-B
09:15PM 41.1129 -73.5366 48° Northeast 387 445 15,400 1,680 Climbing FlightAware ADS-B
09:15PM 41.1574 -73.4711 48° Northeast 394 453 16,400 1,440 Climbing FlightAware ADS-B
09:16PM 41.1880 -73.4250 49° Northeast 400 460 17,100 1,560 Climbing FlightAware
09:16PM 41.2081 -73.3962 47° Northeast 403 464 17,500 1,560 Climbing FlightAware ADS-B
09:17PM 41.2470 -73.3380 48° Northeast 410 472 18,300 1,380 Climbing FlightAware
09:17PM 41.3020 -73.2560 48° Northeast 417 480 19,300 1,560 Climbing FlightAware
09:18PM 41.3550 -73.1780 48° Northeast 422 486 20,400 1,620 Climbing FlightAware
09:18PM 41.3706 -73.1528 50° Northeast 418 481 20,700 1,260 Climbing FlightAware ADS-B
09:18PM 41.3794 -73.1374 53° Northeast 426 490 20,800 1,320 Climbing FlightAware ADS-B
09:18PM 41.3914 -73.1145 55° Northeast 427 491 21,100 1,260 Climbing FlightAware ADS-B
09:19PM 41.4190 -73.0550 58° Northeast 431 496 21,700 1,200 Climbing FlightAware
09:19PM 41.4609 -72.9595 60° Northeast 432 497 22,500 1,260 Climbing FlightAware ADS-B
09:20PM 41.5040 -72.8620 59° Northeast 443 510 23,400 720 Climbing FlightAware
09:21PM 41.5420 -72.7820 58° Northeast 443 510 23,500 60 Climbing FlightAware
09:22PM 41.5800 -72.7040 57° Northeast 443 510 23,500  Level FlightAware
09:22PM 41.6180 -72.6260 57° Northeast 443 510 23,500 1,440 Level FlightAware
09:23PM 41.7270 -72.6210 North 26,600 1,800 Climbing FlightAware
09:24PM 41.8260 -72.5240 36° Northeast 27,500 900 Climbing FlightAware
09:25PM 41.9410 -72.4120 36° Northeast 473 544 28,100 900 Climbing FlightAware
09:26PM 42.0540 -72.3010 36° Northeast 481 554 29,000 780 Climbing FlightAware
09:26PM 42.1230 -72.2340 36° Northeast 487 560 29,400 840 Climbing FlightAware
09:27PM 42.2070 -72.1500 37° Northeast 490 564 30,200 900 Climbing FlightAware
09:28PM 42.2820 -72.0770 36° Northeast 495 570 30,700 780 Climbing FlightAware
09:28PM 42.3540 -72.0050 36° Northeast 495 570 31,300 900 Climbing FlightAware
09:29PM 42.4380 -71.9220 36° Northeast 494 568 32,000 960 Climbing FlightAware
09:30PM 42.5130 -71.8470 36° Northeast 494 568 32,700 720 Climbing FlightAware
09:30PM 42.5860 -71.7740 36° Northeast 490 564 33,000 180 Climbing FlightAware
09:31PM 42.6650 -71.6940 37° Northeast 489 563 33,000  Level FlightAware
09:32PM 42.7390 -71.6200 36° Northeast 486 559 33,000  Level FlightAware
09:33PM 42.8220 -71.5360 37° Northeast 483 556 33,000  Level FlightAware
09:33PM 42.8900 -71.4670 37° Northeast 483 556 33,000  Level FlightAware
09:34PM 42.9720 -71.3840 37° Northeast 484 557 33,000  Level FlightAware
09:35PM 43.0440 -71.3100 37° Northeast 485 558 33,000  Level FlightAware
09:35PM 43.1150 -71.2380 37° Northeast 487 560 33,000  Level FlightAware
09:36PM 43.1990 -71.1520 37° Northeast 487 560 33,000  Level FlightAware
09:37PM 43.2720 -71.0770 37° Northeast 487 560 33,000  Level FlightAware
09:38PM 43.3480 -70.9980 37° Northeast 486 559 33,000  Level FlightAware
09:38PM 43.4200 -70.9240 37° Northeast 485 558 33,000  Level FlightAware
09:39PM 43.4930 -70.8480 37° Northeast 485 558 33,000  Level FlightAware
09:40PM 43.5740 -70.7630 37° Northeast 485 558 33,000  Level FlightAware
09:40PM 43.6470 -70.6870 37° Northeast 486 559 33,000  Level FlightAware
09:41PM 43.7250 -70.6050 37° Northeast 488 562 33,000  Level FlightAware
09:42PM 43.7950 -70.5320 37° Northeast 488 562 33,000  Level FlightAware
09:42PM 43.8690 -70.4540 37° Northeast 485 558 33,000  Level FlightAware
09:43PM 43.9500 -70.3670 38° Northeast 482 555 33,000  Level FlightAware
09:44PM 44.0220 -70.2920 37° Northeast 480 552 33,000  Level FlightAware
09:45PM 44.0970 -70.2120 37° Northeast 477 549 33,000  Level FlightAware
09:45PM 44.1670 -70.1360 38° Northeast 476 548 33,000  Level FlightAware
09:46PM 44.2370 -70.0610 38° Northeast 475 547 33,000  Level FlightAware
09:47PM 44.3150 -69.9770 38° Northeast 475 547 33,000  Level FlightAware
09:47PM 44.3840 -69.9030 37° Northeast 472 543 33,000  Level FlightAware
09:48PM 44.4540 -69.8270 38° Northeast 472 543 33,000  Level FlightAware
09:49PM 44.5310 -69.7430 38° Northeast 470 541 33,000  Level FlightAware
09:49PM 44.6010 -69.6670 38° Northeast 468 539 33,000  Level FlightAware
09:50PM 44.6710 -69.5900 38° Northeast 468 539 33,000  Level FlightAware
09:51PM 44.7430 -69.5110 38° Northeast 470 541 33,000  Level FlightAware
09:51PM 44.8130 -69.4350 38° Northeast 471 542 33,000  Level FlightAware
09:52PM 44.8910 -69.3480 38° Northeast 469 540 33,000  Level FlightAware
09:53PM 44.9580 -69.2740 38° Northeast 469 540 33,000  Level FlightAware
09:54PM 45.0340 -69.1890 38° Northeast 471 542 33,000  Level FlightAware
09:54PM 45.1030 -69.1130 38° Northeast 473 544 33,000  Level FlightAware
09:55PM 45.1720 -69.0350 39° Northeast 473 544 33,000  Level FlightAware
09:56PM 45.2500 -68.9480 38° Northeast 473 544 33,000  Level FlightAware
09:56PM 45.3170 -68.8720 39° Northeast 473 544 33,000  Level FlightAware
09:57PM 45.3920 -68.7870 39° Northeast 472 543 33,000  Level FlightAware
09:58PM 45.4620 -68.7080 38° Northeast 471 542 33,000  Level FlightAware
09:58PM 45.5290 -68.6310 39° Northeast 471 542 33,000  Level FlightAware
09:59PM 45.6070 -68.5420 39° Northeast 468 539 33,000  Level FlightAware
10:00PM 45.6730 -68.4670 38° Northeast 469 540 33,000  Level FlightAware
10:01PM 45.7420 -68.3880 39° Northeast 472 543 33,000  Level FlightAware
10:01PM 45.8200 -68.2980 39° Northeast 470 541 33,000  Level FlightAware
10:02PM 45.8830 -68.2250 39° Northeast 471 542 33,000  Level FlightAware
10:03PM 45.9630 -68.1320 39° Northeast 472 543 33,000  Level FlightAware
10:03PM 46.0310 -68.0530 39° Northeast 471 542 33,000  Level FlightAware
10:04PM 46.0940 -67.9790 39° Northeast 471 542 33,000  Level FlightAware
10:05PM 46.1740 -67.8850 39° Northeast 472 543 33,000  Level FlightAware
10:05PM 46.2390 -67.8080 39° Northeast 474 545 33,000  Level FlightAware
10:06PM 46.3250 -67.7050 40° Northeast 467 537 33,000  Level FlightAware
10:07PM 46.3810 -67.6370 40° Northeast 467 537 33,000  Level FlightAware
10:08PM 46.4380 -67.5680 40° Northeast 467 537 33,000  Level FlightAware
10:08PM 46.4940 -67.4990 40° Northeast 467 537 33,000  Level FlightAware
10:09PM 46.5500 -67.4310 40° Northeast 467 537 33,000  Level FlightAware
10:10PM 46.6210 -67.3450 40° Northeast 467 537 33,000  Level FlightAware
10:11PM 46.6770 -67.2760 40° Northeast 467 537 33,000  Level FlightAware
10:11PM 46.7330 -67.2070 40° Northeast 467 537 33,000  Level FlightAware
10:12PM 46.7890 -67.1380 40° Northeast 467 537 33,000  Level FlightAware
10:13PM 46.8460 -67.0690 40° Northeast 467 537 33,000  Level FlightAware
10:13PM 46.9020 -67.0000 40° Northeast 467 537 33,000  Level FlightAware
10:14PM 46.9720 -66.9140 40° Northeast 467 537 33,000  Level FlightAware
10:15PM 47.0280 -66.8450 40° Northeast 467 537 33,000  Level FlightAware
10:15PM 47.0850 -66.7750 40° Northeast 467 537 33,000  Level FlightAware
10:16PM 47.3000 -66.6500 40° Northeast 460 529 33,000  Level Gander Center
10:17PM 47.4167 -66.5667 26° Northeast 460 529 33,000  Level Moncton Center
10:18PM 47.5167 -66.4833 29° Northeast 460 529 33,000  Level Moncton Center
10:19PM 47.6333 -66.3833 30° Northeast 460 529 33,000  Level Moncton Center
10:20PM 47.7333 -66.2833 34° Northeast 460 529 33,000  Level Moncton Center
10:21PM 47.8500 -66.2000 26° Northeast 460 529 33,000  Level Moncton Center
10:22PM 47.9500 -66.1000 34° Northeast 460 529 33,000  Level Moncton Center
10:23PM 48.0500 -66.0000 34° Northeast 460 529 33,000  Level Moncton Center
10:24PM 48.1833 -65.9000 27° Northeast 460 529 33,000  Level Moncton Center
10:25PM 48.2833 -65.8000 34° Northeast 460 529 33,000  Level Moncton Center
10:26PM 48.4000 -65.7000 30° Northeast 460 529 33,000  Level Moncton Center
10:27PM 48.5000 -65.6167 29° Northeast 450 518 33,000  Level Moncton Center
10:28PM 48.6167 -65.5167 30° Northeast 450 518 33,000  Level Moncton Center
10:29PM 48.7167 -65.4167 33° Northeast 450 518 33,000  Level Moncton Center
10:30PM 48.8167 -65.3167 33° Northeast 460 529 33,000  Level Moncton Center
10:31PM 48.9333 -65.2167 29° Northeast 450 518 33,000  Level Moncton Center
10:32PM 49.0333 -65.1167 33° Northeast 450 518 33,000  Level Moncton Center
10:33PM 49.1333 -65.0167 33° Northeast 450 518 33,000  Level Moncton Center
10:34PM 49.2500 -64.9167 29° Northeast 450 518 33,000  Level Moncton Center
10:35PM 49.3500 -64.8167 33° Northeast 450 518 33,000  Level Moncton Center
10:36PM 49.4500 -64.7000 37° Northeast 450 518 33,000  Level Moncton Center
10:37PM 49.5667 -64.6000 29° Northeast 450 518 33,000  Level Moncton Center
10:38PM 49.6833 -64.5000 29° Northeast 450 518 33,000  Level Moncton Center
10:39PM 49.8000 -64.4000 29° Northeast 450 518 33,000  Level Moncton Center
10:40PM 49.9000 -64.3167 28° Northeast 450 518 33,000  Level Moncton Center
10:41PM 50.0167 -64.1833 36° Northeast 450 518 33,000  Level Moncton Center
10:42PM 50.1167 -64.1167 23° Northeast 450 518 33,000  Level Moncton Center
10:43PM 50.2167 -63.9833 40° Northeast 450 518 33,000  Level Moncton Center
10:44PM 50.3167 -63.9000 28° Northeast 450 518 33,000  Level Moncton Center
10:45PM 50.4333 -63.8000 29° Northeast 450 518 33,000  Level Moncton Center
10:46PM 50.5333 -63.6833 37° Northeast 450 518 33,000  Level Moncton Center
10:47PM 50.6333 -63.5833 32° Northeast 460 529 33,000  Level Moncton Center
10:48PM 50.7500 -63.4667 32° Northeast 460 529 33,000  Level Moncton Center
10:49PM 50.8500 -63.3667 32° Northeast 460 529 33,000  Level Moncton Center
10:50PM 50.9500 -63.2333 40° Northeast 460 529 33,000  Level Moncton Center
10:51PM 51.0667 -63.1167 32° Northeast 460 529 33,000  Level Moncton Center
10:52PM 51.1833 -63.0167 28° Northeast 470 541 33,000  Level Moncton Center
10:53PM 51.2833 -62.9000 36° Northeast 470 541 33,000  Level Moncton Center
10:54PM 51.3833 -62.7833 36° Northeast 470 541 33,000  Level Moncton Center
10:55PM 51.5000 -62.6833 28° Northeast 460 529 33,000  Level Moncton Center
10:56PM 51.6167 -62.5667 32° Northeast 470 541 33,000 360 Level Moncton Center
10:57PM 51.7167 -62.4500 36° Northeast 460 529 33,800 780 Climbing Moncton Center
10:58PM 51.8333 -62.3333 32° Northeast 460 529 34,600 600 Climbing Moncton Center
10:59PM 51.9333 -62.2333 32° Northeast 460 529 35,000 180 Climbing Moncton Center
11:00PM 52.0500 -62.1167 32° Northeast 460 529 35,000  Level Moncton Center
11:01PM 52.1500 -62.0000 36° Northeast 460 529 35,000  Level Moncton Center
11:02PM 52.2667 -61.8833 31° Northeast 460 529 35,000  Level Moncton Center
11:03PM 52.3500 -61.7333 48° Northeast 460 529 35,000  Level Moncton Center
11:04PM 52.4500 -61.6167 35° Northeast 470 541 35,000  Level Moncton Center
11:05PM 52.5667 -61.4833 35° Northeast 470 541 35,000  Level Moncton Center
11:06PM 52.6667 -61.3333 42° Northeast 470 541 35,000  Level Moncton Center
11:07PM 52.7667 -61.1833 42° Northeast 470 541 35,000  Level Moncton Center
11:08PM 52.8667 -61.0667 35° Northeast 470 541 35,000  Level Moncton Center
11:09PM 52.9667 -60.9333 39° Northeast 470 541 35,000  Level Moncton Center
11:10PM 53.0500 -60.7833 47° Northeast 470 541 35,000  Level Moncton Center
11:11PM 53.1500 -60.6333 42° Northeast 470 541 35,000  Level Moncton Center
11:12PM 53.2667 -60.4833 38° Northeast 470 541 35,000  Level Moncton Center
11:13PM 53.3500 -60.3667 40° Northeast 470 541 35,000  Level Moncton Center
11:14PM 53.4500 -60.2167 42° Northeast 470 541 35,000  Level Moncton Center
11:14PM 53.5000 -60.1333 45° Northeast 470 541 35,000  Level Gander Center
11:15PM 53.5500 -60.0500 45° Northeast 470 541 35,000  Level Gander Center
11:16PM 53.6667 -59.9000 37° Northeast 470 541 35,000  Level Gander Center
11:17PM 53.7500 -59.7500 47° Northeast 470 541 35,000  Level Gander Center
11:18PM 53.8667 -59.6167 34° Northeast 470 541 35,000  Level Gander Center
11:19PM 53.9667 -59.4667 41° Northeast 470 541 35,000  Level Gander Center
11:20PM 54.0667 -59.3167 41° Northeast 470 541 35,000  Level Gander Center
11:21PM 54.1667 -59.1667 41° Northeast 470 541 35,000  Level Gander Center
11:22PM 54.2667 -59.0000 44° Northeast 470 541 35,000  Level Gander Center
11:23PM 54.3500 -58.8500 46° Northeast 470 541 35,000  Level Gander Center
11:24PM 54.4333 -58.7167 43° Northeast 470 541 35,000  Level Gander Center
11:25PM 54.5500 -58.5500 40° Northeast 470 541 35,000  Level Gander Center
11:26PM 54.6500 -58.4000 41° Northeast 480 552 35,000  Level Gander Center
11:27PM 54.7500 -58.2500 41° Northeast 480 552 35,000  Level Gander Center
11:28PM 54.8500 -58.0833 44° Northeast 480 552 35,000  Level Gander Center
11:29PM 54.9333 -57.9333 46° Northeast 480 552 35,000  Level Gander Center
11:30PM 55.0333 -57.7833 41° Northeast 480 552 35,000  Level Gander Center
11:31PM 55.1333 -57.6000 46° Northeast 480 552 35,000  Level Gander Center
11:32PM 55.2333 -57.4500 41° Northeast 480 552 35,000  Level Gander Center
11:33PM 55.3167 -57.2833 49° Northeast 480 552 35,000  Level Gander Center
11:34PM 55.4167 -57.1333 40° Northeast 480 552 35,000  Level Gander Center
11:35PM 55.5167 -56.9667 43° Northeast 480 552 35,000  Level Gander Center
11:36PM 55.5667 -56.7667 66° East 480 552 35,000  Level Gander Center
11:37PM 55.6333 -56.5500 61° Northeast 490 564 35,000  Level Gander Center
11:38PM 55.6667 -56.3000 77° East 490 564 35,000  Level Gander Center
11:39PM 55.7333 -56.0833 61° Northeast 480 552 35,000  Level Gander Center
11:40PM 55.7833 -55.8667 68° East 490 564 35,000  Level Gander Center
11:41PM 55.8333 -55.6667 66° East 490 564 35,000  Level Gander Center
11:42PM 55.8833 -55.4500 68° East 490 564 35,000  Level Gander Center
11:43PM 55.9333 -55.2000 70° East 490 564 35,000  Level Gander Center
11:44PM 55.9833 -54.9833 68° East 500 575 35,000  Level Gander Center
11:45PM 56.0333 -54.7667 67° East 500 575 35,000  Level Gander Center
11:45PM 56.0667 -54.6000 70° East 500 575 35,000  Level Gander Center
11:46PM 56.0833 -54.5167 70° East 490 564 35,000  Level Gander Center
11:47PM 56.1500 -54.3000 61° Northeast 490 564 35,000  Level Gander Center
11:48PM 56.2000 -54.0667 69° East 480 552 35,000  Level Gander Center
11:49PM 56.2333 -53.8167 76° East 480 552 35,000  Level Gander Center
11:50PM 56.3000 -53.5667 64° Northeast 490 564 35,000  Level Gander Center
11:51PM 56.3333 -53.3500 74° East 480 552 35,000  Level Gander Center
11:52PM 56.4000 -53.1333 61° Northeast 490 564 35,000  Level Gander Center
11:53PM 56.4333 -52.9000 75° East 510 587 35,000  Level Gander Center
11:54PM 56.4833 -52.6833 67° East 500 575 35,000  Level Gander Center
11:55PM 56.5333 -52.4333 70° East 500 575 35,000  Level Gander Center
11:55PM 56.5500 -52.3000 77° East 500 575 35,000  Level Gander Center
11:57PM 56.6333 -51.9833 64° Northeast 510 587 35,000  Level Gander Center
11:59PM 56.7137 -51.5662 71° East  Level FlightAware Approximate
12:04AM 56.9667 -50.1000 66° East 510 587 35,000  Level Gander Center
12:05AM 57.0167 -49.8833 67° East 510 587 35,000  Level Gander Center
12:06AM 57.0367 -49.8542 65° Northeast  Level FlightAware Approximate
12:07AM 57.0957 -49.6177 65° Northeast  Level FlightAware Approximate
12:07AM 57.0819 -49.6236 65° Northeast  Level FlightAware Approximate
12:08AM 57.1543 -49.3804 65° Northeast  Level FlightAware Approximate
12:08AM 57.1833 -49.2000 65° Northeast 510 587 35,000  Level Gander Center
12:09AM 57.2124 -49.1424 66° East  Level FlightAware Approximate
12:09AM 57.2167 -48.9667 75° East 510 587 35,000  Level Gander Center
12:10AM 57.2700 -48.9037 66° East  Level FlightAware Approximate
12:10AM 57.2833 -48.7333 62° Northeast 510 587 35,000  Level Gander Center
12:11AM 57.3500 -48.5000 62° Northeast 510 587 35,000  Level Gander Center
12:12AM 57.4000 -48.2500 70° East 520 598 35,000  Level Gander Center
12:13AM 57.4667 -48.0167 62° Northeast 520 598 35,000  Level Gander Center
12:14AM 57.4843 -47.9493 65° Northeast  Level FlightAware Approximate
12:14AM 57.5000 -47.7833 75° East 520 598 35,000  Level Gander Center
12:15AM 57.5667 -47.5000 66° East 520 598 35,000  Level Gander Center
12:16AM 57.6167 -47.2667 68° East 520 598 35,000  Level Gander Center
12:17AM 57.6833 -47.0167 63° Northeast 520 598 35,000  Level Gander Center
12:18AM 57.7333 -46.7667 69° East 520 598 35,000  Level Gander Center
12:19AM 57.8000 -46.5333 62° Northeast 520 598 35,000  Level Gander Center
12:20AM 57.8500 -46.2500 72° East 520 598 35,000  Level Gander Center
12:21AM 57.8833 -46.0167 75° East 520 598 35,000  Level Gander Center
12:22AM 57.9500 -45.7667 63° Northeast 520 598 35,000  Level Gander Center
12:23AM 58.0000 -45.5167 69° East 520 598 35,000  Level Gander Center
12:24AM 58.0500 -45.2667 69° East 520 598 35,000  Level Gander Center
12:25AM 58.1000 -45.0167 69° East 520 598 35,000  Level Gander Center
12:26AM 58.1500 -44.7333 71° East 520 598 35,000  Level Gander Center
12:27AM 58.2000 -44.5000 68° East 520 598 35,000  Level Gander Center
12:28AM 58.2500 -44.2500 69° East 520 598 35,000  Level Gander Center
12:29AM 58.3000 -44.0000 69° East 520 598 35,000  Level Gander Center
12:30AM 58.3500 -43.7500 69° East 520 598 35,000  Level Gander Center
12:31AM 58.4000 -43.4833 70° East 520 598 35,000  Level Gander Center
12:32AM 58.4333 -43.2167 76° East 520 598 35,000  Level Gander Center
12:33AM 58.4833 -42.9500 70° East 520 598 35,000  Level Gander Center
12:34AM 58.5333 -42.7000 69° East 520 598 35,000  Level Gander Center
12:35AM 58.5833 -42.4500 69° East 520 598 35,000  Level Gander Center
12:36AM 58.6333 -42.1833 70° East 520 598 35,000  Level Gander Center
12:37AM 58.6667 -41.9333 76° East 520 598 35,000  Level Gander Center
12:38AM 58.7000 -41.6500 77° East 520 598 35,000  Level Gander Center
12:39AM 58.7500 -41.4000 69° East 520 598 35,000  Level Gander Center
12:40AM 58.8000 -41.1333 70° East 530 610 35,000  Level Gander Center
12:41AM 58.8333 -40.8833 75° East 530 610 35,000  Level Gander Center
12:42AM 58.8833 -40.5833 72° East 530 610 35,000  Level Gander Center
12:43AM 58.9167 -40.3333 75° East 530 610 35,000  Level Gander Center
12:44AM 58.9667 -40.0667 70° East 530 610 35,000  Level Gander Center
12:45AM 59.0000 -39.7833 77° East 530 610 35,000  Level Gander Center
12:46AM 59.0167 -39.5000 83° East 530 610 35,000  Level Gander Center
12:48AM 59.0289 -39.1342 86° East  Level FlightAware Approximate
12:55AM 59.0743 -37.3232 86° East  Level FlightAware Approximate
12:56AM 59.0787 -37.0641 88° East  Level FlightAware Approximate
12:57AM 59.0826 -36.8050 88° East  Level FlightAware Approximate
12:58AM 59.0860 -36.5458 88° East  Level FlightAware Approximate
12:59AM 59.0889 -36.2866 89° East  Level FlightAware Approximate
01:00AM 59.0912 -36.0274 89° East  Level FlightAware Approximate
01:01AM 59.0931 -35.7681 89° East  Level FlightAware Approximate
01:02AM 59.0944 -35.5088 89° East  Level FlightAware Approximate
01:03AM 59.0952 -35.2494 90° East  Level FlightAware Approximate
01:04AM 59.0955 -34.9901 90° East  Level FlightAware Approximate
01:05AM 59.0952 -34.7308 90° East  Level FlightAware Approximate
01:06AM 59.0945 -34.4714 90° East  Level FlightAware Approximate
01:07AM 59.0932 -34.2121 90° East  Level FlightAware Approximate
01:08AM 59.0914 -33.9528 91° East  Level FlightAware Approximate
01:09AM 59.0891 -33.6936 91° East  Level FlightAware Approximate
01:10AM 59.0863 -33.4343 91° East  Level FlightAware Approximate
01:11AM 59.0830 -33.1752 91° East  Level FlightAware Approximate
01:12AM 59.0791 -32.9160 92° East  Level FlightAware Approximate
01:13AM 59.0748 -32.6570 92° East  Level FlightAware Approximate
01:14AM 59.0699 -32.3980 92° East  Level FlightAware Approximate
01:15AM 59.0645 -32.1391 92° East  Level FlightAware Approximate
01:16AM 59.0586 -31.8802 92° East  Level FlightAware Approximate
01:17AM 59.0521 -31.6215 93° East  Level FlightAware Approximate
01:18AM 59.0452 -31.3629 93° East  Level FlightAware Approximate
01:19AM 59.0377 -31.1043 93° East  Level FlightAware Approximate
01:20AM 59.0297 -30.8459 93° East  Level FlightAware Approximate
01:21AM 59.0213 -30.5877 94° East  Level FlightAware Approximate
01:22AM 59.0122 -30.3295 94° East  Level FlightAware Approximate
01:23AM 59.0027 -30.0715 94° East  Level FlightAware Approximate
01:24AM 59.0068 -29.8135 86° East  Level FlightAware Approximate
01:25AM 59.0157 -29.5554 86° East  Level FlightAware Approximate
01:26AM 59.0241 -29.2971 86° East  Level FlightAware Approximate
01:27AM 59.0319 -29.0387 86° East  Level FlightAware Approximate
01:28AM 59.0393 -28.7802 87° East  Level FlightAware Approximate
01:29AM 59.0461 -28.5216 87° East  Level FlightAware Approximate
01:30AM 59.0525 -28.2629 87° East  Level FlightAware Approximate
01:31AM 59.0583 -28.0041 87° East  Level FlightAware Approximate
01:32AM 59.0636 -27.7453 88° East  Level FlightAware Approximate
01:33AM 59.0684 -27.4863 88° East  Level FlightAware Approximate
01:34AM 59.0727 -27.2273 88° East  Level FlightAware Approximate
01:35AM 59.0764 -26.9682 88° East  Level FlightAware Approximate
01:36AM 59.0796 -26.7091 88° East  Level FlightAware Approximate
01:37AM 59.0824 -26.4499 89° East  Level FlightAware Approximate
01:38AM 59.0846 -26.1907 89° East  Level FlightAware Approximate
01:39AM 59.0863 -25.9315 89° East  Level FlightAware Approximate
01:40AM 59.0874 -25.6722 89° East  Level FlightAware Approximate
01:41AM 59.0881 -25.4129 90° East  Level FlightAware Approximate
01:42AM 59.0882 -25.1536 90° East  Level FlightAware Approximate
01:43AM 59.0878 -24.8944 90° East  Level FlightAware Approximate
01:44AM 59.0869 -24.6351 90° East  Level FlightAware Approximate
01:45AM 59.0855 -24.3758 90° East  Level FlightAware Approximate
01:46AM 59.0836 -24.1166 91° East  Level FlightAware Approximate
01:47AM 59.0811 -23.8574 91° East  Level FlightAware Approximate
01:48AM 59.0781 -23.5982 91° East  Level FlightAware Approximate
01:49AM 59.0747 -23.3391 91° East  Level FlightAware Approximate
01:50AM 59.0707 -23.0801 92° East  Level FlightAware Approximate
01:51AM 59.0663 -22.8211 91° East  Level FlightAware Approximate
01:52AM 59.0628 -22.5621 91° East  Level FlightAware Approximate
01:53AM 59.0587 -22.3031 92° East  Level FlightAware Approximate
01:54AM 59.0542 -22.0442 92° East  Level FlightAware Approximate
01:55AM 59.0491 -21.7854 92° East  Level FlightAware Approximate
01:56AM 59.0435 -21.5267 92° East  Level FlightAware Approximate
01:57AM 59.0374 -21.2680 93° East  Level FlightAware Approximate
01:58AM 59.0308 -21.0095 93° East  Level FlightAware Approximate
01:59AM 59.0237 -20.7510 93° East  Level FlightAware Approximate
02:00AM 59.0160 -20.4927 93° East  Level FlightAware Approximate
02:01AM 59.0079 -20.2344 93° East  Level FlightAware Approximate
02:02AM 58.9994 -19.9763 93° East  Level FlightAware Approximate
02:03AM 58.9930 -19.7180 93° East  Level FlightAware Approximate
02:04AM 58.9860 -19.4598 93° East  Level FlightAware Approximate
02:05AM 58.9785 -19.2018 93° East  Level FlightAware Approximate
02:06AM 58.9705 -18.9438 93° East  Level FlightAware Approximate
02:07AM 58.9619 -18.6860 94° East  Level FlightAware Approximate
02:08AM 58.9529 -18.4279 94° East  Level FlightAware Approximate
02:09AM 58.9433 -18.1701 94° East  Level FlightAware Approximate
02:10AM 58.9332 -17.9124 94° East  Level FlightAware Approximate
02:11AM 58.9226 -17.6548 94° East  Level FlightAware Approximate
02:12AM 58.9115 -17.3974 95° East  Level FlightAware Approximate
02:13AM 58.8999 -17.1402 95° East  Level FlightAware Approximate
02:14AM 58.8878 -16.8831 95° East  Level FlightAware Approximate
02:15AM 58.8752 -16.6262 95° East  Level FlightAware Approximate
02:16AM 58.8620 -16.3696 96° East  Level FlightAware Approximate
02:17AM 58.8484 -16.1131 96° East  Level FlightAware Approximate
02:18AM 58.8342 -15.8568 96° East  Level FlightAware Approximate
02:19AM 58.8196 -15.6007 96° East  Level FlightAware Approximate
02:20AM 58.8044 -15.3449 96° East  Level FlightAware Approximate
02:21AM 58.7887 -15.0893 97° East  Level FlightAware Approximate
02:22AM 58.7725 -14.8339 97° East  Level FlightAware Approximate
02:23AM 58.7559 -14.5787 97° East  Level FlightAware Approximate
02:24AM 58.7387 -14.3239 97° East  Level FlightAware Approximate
02:25AM 58.7210 -14.0692 98° East  Level FlightAware Approximate
02:25AM 58.1830 -11.3350 98° East 521 600 35,000  Level FlightAware
02:26AM 58.7028 -13.8148 98° East  Level FlightAware Approximate
02:26AM 58.1590 -11.1520 104° East 523 602 35,000  Level FlightAware
02:27AM 58.1330 -10.9620 104° East 522 601 35,000  Level FlightAware
02:27AM 58.1120 -10.8050 104° East 523 602 35,000  Level FlightAware
02:28AM 58.0830 -10.5930 104° East 521 600 35,000  Level FlightAware
02:29AM 58.0570 -10.4070 105° East 522 601 35,000  Level FlightAware
02:30AM 58.0300 -10.2130 105° East 521 600 35,000  Level FlightAware
02:30AM 58.0030 -10.0300 105° East 522 601 35,000  Level FlightAware
02:31AM 57.9760 -9.8360 105° East 521 600 35,000  Level FlightAware
02:32AM 57.9660 -9.6560 96° East 521 600 35,000  Level FlightAware
02:32AM 57.9560 -9.4720 96° East 522 601 35,000  Level FlightAware
02:33AM 57.9470 -9.2670 95° East 522 601 35,000  Level FlightAware
02:34AM 57.9390 -9.0860 95° East 522 601 35,000 -1,680 Level FlightAware
02:34AM 57.9335 -8.9861 95° East 470 541 33,400 -2,460 Descending FlightAware UK
02:34AM 57.9307 -8.9041 94° East 468 539 33,500 4,560 Climbing FlightAware UK
02:34AM 57.9310 -8.9060 94° East 522 601 35,000  Climbing FlightAware
02:35AM 57.9267 -8.8230 94° East 468 539 33,500 -2,760 Descending FlightAware UK
02:35AM 57.9228 -8.7417 95° East 472 543 33,500 3,000 Level FlightAware UK
02:35AM 57.9210 -8.7020 95° East 525 604 35,000 -240 Climbing FlightAware
02:36AM 57.9163 -8.6056 95° East 470 541 33,400 -2,700 Descending FlightAware UK
02:36AM 57.9124 -8.5240 95° East 470 541 33,400 3,540 Level FlightAware UK
02:36AM 57.9110 -8.4960 95° East 526 605 35,000 240 Climbing FlightAware
02:36AM 57.9058 -8.4131 95° East 468 539 33,500 -2,760 Descending FlightAware UK
02:37AM 57.9020 -8.3304 95° East 468 539 33,500 3,600 Level FlightAware UK
02:37AM 57.9020 -8.3180 95° East 528 608 35,000 -300 Climbing FlightAware
02:37AM 57.8964 -8.2212 95° East 472 543 33,400 -2,760 Descending FlightAware UK
02:37AM 57.8922 -8.1391 96° East 472 543 33,400 3,420 Level FlightAware UK
02:37AM 57.8910 -8.1080 96° East 529 609 35,000 180 Climbing FlightAware
02:38AM 57.8851 -8.0023 96° East 474 545 33,500 -2,580 Descending FlightAware UK
02:38AM 57.8809 -7.9203 95° East 476 548 33,400 4,500 Descending FlightAware UK
02:38AM 57.8820 -7.9280 95° East 528 608 35,000  Climbing FlightAware
02:38AM 57.8767 -7.8383 95° East 470 541 33,400 -2,880 Descending FlightAware UK
02:39AM 57.8723 -7.7566 96° East 470 541 33,400 3,960 Level FlightAware UK
02:39AM 57.8720 -7.7450 96° East 529 609 35,000  Climbing FlightAware
02:39AM 57.8661 -7.6475 96° East 472 543 33,400 -2,700 Descending FlightAware UK
02:39AM 57.8615 -7.5647 96° East 472 543 33,400 3,540 Level FlightAware UK
02:39AM 57.8600 -7.5410 96° East 529 609 35,000 240 Climbing FlightAware
02:40AM 57.8552 -7.4553 96° East 474 545 33,500 -2,940 Descending FlightAware UK
02:40AM 57.8505 -7.3732 96° East 474 545 33,400 3,600 Descending FlightAware UK
02:40AM 57.8500 -7.3560 96° East 529 609 35,000 240 Climbing FlightAware
02:40AM 57.8443 -7.2636 96° East 474 545 33,500 -2,580 Descending FlightAware UK
02:41AM 57.8396 -7.1817 96° East 478 550 33,500 3,180 Level FlightAware UK
02:41AM 57.8370 -7.1470 96° East 527 606 35,000 -240 Climbing FlightAware
02:41AM 57.8313 -7.0457 96° East 474 545 33,400  Descending FlightAware UK
02:42AM 57.8270 -6.9690 96° East 525 604 35,000 120 Climbing FlightAware
02:42AM 57.8215 -6.8836 96° East 476 548 33,500 -2,880 Descending FlightAware UK
02:42AM 57.8164 -6.8027 97° East 474 545 33,400 3,060 Descending FlightAware UK
02:42AM 57.8140 -6.7640 97° East 522 601 35,000 180 Climbing FlightAware
02:43AM 57.8082 -6.6681 97° East 474 545 33,500 -2,460 Descending FlightAware UK
02:43AM 57.8032 -6.5874 97° East 474 545 33,500 4,260 Level FlightAware UK
02:43AM 57.8020 -6.5800 97° East 523 602 35,000 -360 Climbing FlightAware
02:43AM 57.7979 -6.5067 97° East 472 543 33,400 -2,760 Descending FlightAware UK
02:44AM 57.7927 -6.4261 97° East 472 543 33,500 120 Climbing FlightAware UK
02:44AM 57.7873 -6.3455 97° East 476 548 33,500  Level FlightAware UK
02:44AM 57.7819 -6.2642 97° East 474 545 33,500 -180 Level FlightAware UK
02:44AM 57.7765 -6.1839 97° East 472 543 33,400  Descending FlightAware UK
02:45AM 57.7711 -6.1037 97° East 472 543 33,500 4,140 Climbing FlightAware UK
02:45AM 57.7710 -6.1040 97° East 521 600 35,000  Climbing FlightAware
02:45AM 57.7639 -5.9968 97° East 478 550 33,500 -2,640 Descending FlightAware UK
02:45AM 57.7582 -5.9167 98° East 472 543 33,400 3,420 Descending FlightAware UK
02:46AM 57.7570 -5.9020 98° East 520 598 35,000 240 Climbing FlightAware
02:46AM 57.7507 -5.8099 98° East 476 548 33,500 -2,880 Descending FlightAware UK
02:46AM 57.7449 -5.7300 98° East 472 543 33,400 3,720 Descending FlightAware UK
02:46AM 57.7440 -5.7250 98° East 519 597 35,000 240 Climbing FlightAware
02:47AM 57.7373 -5.6233 98° East 474 545 33,500 -2,520 Descending FlightAware UK
02:47AM 57.7316 -5.5433 98° East 474 545 33,500 3,300 Level FlightAware UK
02:47AM 57.7300 -5.5220 98° East 520 598 35,000  Climbing FlightAware
02:47AM 57.7238 -5.4366 98° East 474 545 33,500 -2,760 Descending FlightAware UK
02:48AM 57.7180 -5.3566 98° East 474 545 33,500 3,600 Level FlightAware UK
02:48AM 57.7170 -5.3470 98° East 519 597 35,000  Climbing FlightAware
02:48AM 57.7100 -5.2499 98° East 472 543 33,500 -2,580 Descending FlightAware UK
02:48AM 57.7039 -5.1700 98° East 474 545 33,500 3,900 Level FlightAware UK
02:48AM 57.7040 -5.1680 98° East 521 600 35,000 -300 Climbing FlightAware
02:49AM 57.6957 -5.0632 98° East 476 548 33,400 -2,640 Descending FlightAware UK
02:49AM 57.6895 -4.9832 98° East 474 545 33,400 3,660 Level FlightAware UK
02:49AM 57.6880 -4.9640 98° East 520 598 35,000  Climbing FlightAware
02:49AM 57.6813 -4.8756 98° East 474 545 33,400 -2,880 Descending FlightAware UK
02:50AM 57.6751 -4.7957 98° East 472 543 33,400 3,960 Level FlightAware UK
02:50AM 57.6740 -4.7870 98° East 520 598 35,000 240 Climbing FlightAware
02:50AM 57.6667 -4.6890 98° East 474 545 33,500 -2,700 Descending FlightAware UK
02:50AM 57.6602 -4.6090 99° East 472 543 33,400 4,080 Descending FlightAware UK
02:50AM 57.6600 -4.6080 99° East 522 601 35,000  Climbing FlightAware
02:51AM 57.6515 -4.5021 99° East 472 543 33,400 -2,580 Descending FlightAware UK
02:51AM 57.6449 -4.4218 99° East 472 543 33,400 3,840 Level FlightAware UK
02:51AM 57.6440 -4.4090 99° East 526 605 35,000 120 Climbing FlightAware
02:52AM 57.6318 -4.2605 99° East 474 545 33,500  Descending FlightAware UK
02:52AM 57.6290 -4.2260 99° East 528 608 35,000  Climbing FlightAware
02:52AM 57.6206 -4.1254 99° East 478 550 33,500 -2,640 Descending FlightAware UK
02:52AM 57.6137 -4.0444 99° East 478 550 33,400 3,420 Descending FlightAware UK
02:53AM 57.6120 -4.0270 99° East 527 606 35,000 240 Climbing FlightAware
02:53AM 57.6044 -3.9369 99° East 478 550 33,500 -2,700 Descending FlightAware UK
02:53AM 57.5974 -3.8565 99° East 476 548 33,500 3,720 Level FlightAware UK
02:53AM 57.5970 -3.8500 99° East 525 604 35,000 -240 Climbing FlightAware
02:54AM 57.5879 -3.7486 99° East 472 543 33,400 -2,460 Descending FlightAware UK
02:54AM 57.5810 -3.6684 99° East 474 545 33,500 3,660 Climbing FlightAware UK
02:54AM 57.5790 -3.6460 99° East 527 606 35,000 -180 Climbing FlightAware
02:54AM 57.5668 -3.5075 99° East 476 548 33,400  Descending FlightAware UK
02:55AM 57.5650 -3.4870 99° East 527 606 35,000  Climbing FlightAware
02:55AM 57.5546 -3.3723 99° East 478 550 33,400 -2,400 Descending FlightAware UK
02:55AM 57.5472 -3.2919 100° East 476 548 33,400 4,320 Level FlightAware UK
02:55AM 57.5460 -3.2820 100° East 526 605 35,000  Climbing FlightAware
02:56AM 57.5374 -3.1849 100° East 480 552 33,400 -2,580 Descending FlightAware UK
02:56AM 57.5300 -3.1048 100° East 480 552 33,400 3,840 Level FlightAware UK
02:56AM 57.5280 -3.0840 100° East 523 602 35,000  Climbing FlightAware
02:56AM 57.5200 -2.9974 100° East 480 552 33,400 -2,580 Descending FlightAware UK
02:57AM 57.5126 -2.9178 100° East 476 548 33,500 4,140 Climbing FlightAware UK
02:57AM 57.5110 -2.9060 100° East 520 598 35,000  Climbing FlightAware
02:57AM 57.4999 -2.7852 100° East 480 552 33,500  Descending FlightAware UK
02:57AM 57.4920 -2.7040 100° East 519 597 35,000  Climbing FlightAware
02:58AM 57.4847 -2.6270 100° East 476 548 33,500 -2,880 Descending FlightAware UK
02:58AM 57.4771 -2.5478 100° East 478 550 33,400 3,720 Descending FlightAware UK
02:58AM 57.4760 -2.5350 100° East 520 598 35,000 240 Climbing FlightAware
02:58AM 57.4667 -2.4423 100° East 474 545 33,500  Descending FlightAware UK
02:59AM 57.4580 -2.3530 100° East 522 601 35,000  Climbing FlightAware
02:59AM 57.4485 -2.2568 100° East 476 548 33,500 -2,100 Descending FlightAware UK
03:00AM 57.4378 -2.1515 101° East 480 552 33,500 3,000 Level FlightAware UK
03:00AM 57.4380 -2.1510 101° East 522 601 35,000 -240 Climbing FlightAware
03:00AM 57.4269 -2.0455 101° East 480 552 33,400 -2,280 Descending FlightAware UK
03:00AM 57.4163 -1.9404 101° East 480 552 33,400 3,060 Level FlightAware UK
03:00AM 57.4200 -1.9630 101° East 522 601 35,000 240 Climbing FlightAware
03:01AM 57.4055 -1.8358 101° East 480 552 33,500 -2,760 Descending FlightAware UK
03:01AM 57.3972 -1.7565 101° East 478 550 33,400  Descending FlightAware UK
03:02AM 57.3780 -1.5790 101° East 35,000 60 Climbing FlightAware
03:02AM 57.3641 -1.4440 101° East 474 545 33,500  Descending FlightAware UK
03:03AM 57.3580 -1.3850 101° East 518 596 35,000 1,500 Climbing FlightAware
03:03AM 57.3390 -1.2100 101° East 520 598 35,000 -1,620 Level FlightAware
03:04AM 57.3276 -1.1042 101° East 480 552 33,400 -2,580 Descending FlightAware UK
03:04AM 57.3191 -1.0259 101° East 478 550 33,400 3,840 Level FlightAware UK
03:04AM 57.3170 -1.0130 101° East 518 596 35,000  Climbing FlightAware
03:04AM 57.3072 -0.9209 101° East 478 550 33,400 -2,760 Descending FlightAware UK
03:05AM 57.2985 -0.8429 102° East 474 545 33,400 4,140 Level FlightAware UK
03:05AM 57.2980 -0.8400 102° East 517 595 35,000  Climbing FlightAware
03:05AM 57.2868 -0.7391 102° East 474 545 33,400 -2,640 Descending FlightAware UK
03:05AM 57.2780 -0.6611 102° East 476 548 33,400 3,660 Level FlightAware UK
03:05AM 57.2760 -0.6440 102° East 519 597 35,000  Climbing FlightAware
03:06AM 57.2660 -0.5560 102° East 474 545 33,400 -2,880 Descending FlightAware UK
03:06AM 57.2571 -0.4775 102° East 478 550 33,400 3,960 Level FlightAware UK
03:06AM 57.2560 -0.4720 102° East 522 601 35,000  Climbing FlightAware
03:07AM 57.2357 -0.2932 102° East 478 550 33,400  Descending FlightAware UK
03:07AM 57.2330 -0.2750 102° East 521 600 35,000  Climbing FlightAware
03:07AM 57.2204 -0.1628 102° East 476 548 33,400  Descending FlightAware UK
03:07AM 57.2130 -0.0990 102° East 523 602 35,000  Climbing FlightAware
03:08AM 57.1954 0.0465 102° East 474 545 33,400  Descending FlightAware UK
03:08AM 57.1920 0.0730 102° East 524 603 35,000 180 Climbing FlightAware
03:08AM 57.1800 0.1769 102° East 474 545 33,500  Descending FlightAware UK
03:09AM 57.1690 0.2660 102° East 525 604 35,000 -180 Climbing FlightAware
03:09AM 57.1542 0.3867 102° East 484 557 33,400  Descending FlightAware UK
03:10AM 57.1480 0.4350 102° East 522 601 35,000 120 Climbing FlightAware
03:10AM 57.1348 0.5426 102° East 476 548 33,500  Descending FlightAware UK
03:10AM 57.1250 0.6220 102° East 523 602 35,000  Climbing FlightAware
03:11AM 57.1121 0.7249 102° East 478 550 33,500  Descending FlightAware UK
03:11AM 57.1040 0.7870 102° East 523 602 35,000 -180 Climbing FlightAware
03:11AM 57.0926 0.8804 102° East 476 548 33,400 -2,580 Descending FlightAware UK
03:11AM 57.0826 0.9581 103° East 474 545 33,500 3,420 Climbing FlightAware UK
03:12AM 57.0800 0.9800 103° East 522 601 35,000  Climbing FlightAware
03:12AM 57.0592 1.1393 103° East 476 548 33,500  Descending FlightAware UK
03:12AM 57.0550 1.1730 103° East 521 600 35,000  Climbing FlightAware
03:13AM 57.0423 1.2696 103° East 478 550 33,500 -2,580 Descending FlightAware UK
03:13AM 57.0322 1.3472 103° East 478 550 33,500 3,900 Level FlightAware UK
03:13AM 57.0320 1.3500 103° East 521 600 35,000  Climbing FlightAware
03:13AM 57.0188 1.4506 103° East 476 548 33,500 -2,460 Descending FlightAware UK
03:14AM 57.0084 1.5281 104° East 474 545 33,500 4,260 Level FlightAware UK
03:14AM 57.0090 1.5190 104° East 523 602 35,000  Climbing FlightAware
03:14AM 56.9979 1.6065 104° East 476 548 33,500 -2,700 Descending FlightAware UK
03:14AM 56.9874 1.6843 104° East 476 548 33,500 3,060 Level FlightAware UK
03:14AM 56.9830 1.7150 104° East 529 609 35,000 1,920 Climbing FlightAware
03:15AM 56.9650 1.8510 104° East 530 610 35,000 -1,680 Level FlightAware
03:15AM 56.9485 1.9715 104° East 478 550 33,500 -2,100 Descending FlightAware UK
03:16AM 56.9341 2.0770 104° East 478 550 33,500 3,000 Level FlightAware UK
03:16AM 56.9330 2.0830 104° East 533 613 35,000  Climbing FlightAware
03:16AM 56.9195 2.1816 104° East 478 550 33,500  Descending FlightAware UK
03:16AM 56.9140 2.2180 104° East 533 613 35,000  Climbing FlightAware
03:17AM 56.8941 2.3643 104° East 478 550 33,500  Descending FlightAware UK
03:17AM 56.8860 2.4180 104° East 532 612 35,000  Climbing FlightAware
03:17AM 56.8719 2.5217 104° East 476 548 33,500 -2,700 Descending FlightAware UK
03:18AM 56.8609 2.6001 104° East 476 548 33,500 4,680 Level FlightAware UK
03:18AM 56.8670 2.5590 104° East 532 612 35,000  Climbing FlightAware
03:18AM 56.8496 2.6785 104° East 478 550 33,500 -2,580 Descending FlightAware UK
03:18AM 56.8383 2.7568 105° East 478 550 33,500  Level FlightAware UK
03:19AM 56.8269 2.8361 105° East 478 550 33,500  Level FlightAware UK
03:19AM 56.8156 2.9135 105° East 476 548 33,500  Level FlightAware UK
03:19AM 56.8040 2.9926 105° East 476 548 33,500 -180 Level FlightAware UK
03:20AM 56.7926 3.0707 105° East 474 545 33,400  Descending FlightAware UK
03:20AM 56.7812 3.1489 105° East 478 550 33,500 4,140 Climbing FlightAware UK
03:20AM 56.7830 3.1380 105° East 535 616 35,000  Climbing FlightAware
03:20AM 56.7658 3.2541 105° East 478 550 33,500 -2,460 Descending FlightAware UK
03:21AM 56.7542 3.3314 105° East 480 552 33,500 3,420 Level FlightAware UK
03:21AM 56.7560 3.3220 105° East 536 617 35,000 -300 Climbing FlightAware
03:21AM 56.7413 3.4378 105° East 478 550 33,400 -2,700 Descending FlightAware UK
03:21AM 56.7319 3.5170 102° East 480 552 33,500 3,960 Climbing FlightAware UK
03:21AM 56.7330 3.5090 102° East 536 617 35,000  Climbing FlightAware
03:22AM 56.7191 3.6232 102° East 478 550 33,500 -2,460 Descending FlightAware UK
03:22AM 56.7094 3.7021 103° East 478 550 33,500 2,160 Level FlightAware UK
03:22AM 56.7020 3.7580 103° East 536 617 35,000 1,320 Climbing FlightAware
03:23AM 56.6740 3.9800 103° East 536 617 35,000 -1,380 Level FlightAware
03:23AM 56.6594 4.0957 103° East 480 552 33,500  Descending FlightAware UK
03:24AM 56.6500 4.1630 103° East 535 616 35,000  Climbing FlightAware
03:24AM 56.6387 4.2534 103° East 480 552 33,500 -2,520 Descending FlightAware UK
03:24AM 56.6283 4.3318 104° East 478 550 33,500 4,080 Level FlightAware UK
03:24AM 56.6290 4.3240 104° East 535 616 35,000  Climbing FlightAware
03:25AM 56.6146 4.4362 104° East 478 550 33,500  Descending FlightAware UK
03:26AM 56.5890 4.6250 104° East 535 616 35,000 960 Climbing FlightAware
03:26AM 56.5640 4.8110 104° East 533 613 35,000  Level FlightAware
03:27AM 56.5400 4.9860 104° East 535 616 35,000  Level FlightAware
03:28AM 56.5230 5.1600 100° East 536 617 35,000  Level FlightAware
03:28AM 56.5010 5.3910 100° East 538 619 35,000  Level FlightAware
03:29AM 56.4850 5.5670 99° East 537 618 35,000  Level FlightAware
03:30AM 56.4660 5.7630 100° East 536 617 35,000  Level FlightAware
03:31AM 56.4500 5.9320 100° East 537 618 35,000  Level FlightAware
03:31AM 56.4290 6.1440 100° East 538 619 35,000  Level FlightAware
03:32AM 56.4120 6.3150 100° East 537 618 35,000  Level FlightAware
03:33AM 56.3930 6.4960 101° East 540 621 35,000  Level FlightAware
03:33AM 56.3730 6.6900 100° East 542 624 35,000  Level FlightAware
03:34AM 56.3540 6.8730 101° East 543 625 35,000  Level FlightAware
03:35AM 56.3320 7.0710 101° East 544 626 35,000  Level FlightAware
03:35AM 56.3130 7.2440 101° East 544 626 35,000  Level FlightAware
03:36AM 56.2920 7.4400 101° East 544 626 35,000  Level FlightAware
03:37AM 56.2710 7.6270 101° East 544 626 35,000  Level FlightAware
03:38AM 56.2510 7.8030 101° East 545 627 35,000  Level FlightAware
03:38AM 56.2280 7.9960 102° East 545 627 35,000  Level FlightAware
03:39AM 56.2090 8.1770 101° East 545 627 35,000  Level FlightAware
03:40AM 56.2000 8.3590 95° East 550 633 35,000  Level FlightAware
03:40AM 56.2010 8.5670 89° East 552 635 35,000  Level FlightAware
03:41AM 56.2020 8.7430 89° East 552 635 35,000  Level FlightAware
03:42AM 56.2030 8.9490 89° East 552 635 35,000  Level FlightAware
03:42AM 56.2040 9.1320 89° East 552 635 35,000  Level FlightAware
03:43AM 56.2050 9.3170 89° East 553 636 35,000  Level FlightAware
03:44AM 56.2050 9.5240 90° East 553 636 35,000  Level FlightAware
03:44AM 56.2060 9.6720 89° East 552 635 35,000  Level FlightAware
03:45AM 56.2060 9.9090 90° East 554 638 35,000  Level FlightAware
03:46AM 56.2050 10.0900 90° East 556 640 35,000  Level FlightAware
03:47AM 56.2050 10.2780 90° East 557 641 35,000  Level FlightAware
03:47AM 56.2040 10.4900 90° East 558 642 35,000  Level FlightAware
03:48AM 56.2020 10.6740 91° East 559 643 35,000  Level FlightAware
03:49AM 56.2010 10.8700 90° East 560 644 35,000  Level FlightAware
03:49AM 56.1990 11.0550 91° East 560 644 35,000  Level FlightAware
03:50AM 56.1960 11.2400 92° East 560 644 35,000  Level FlightAware
03:51AM 56.1930 11.4160 92° East 560 644 35,000  Level FlightAware
03:52AM 56.1890 11.6410 92° East 558 642 35,000  Level FlightAware
03:52AM 56.1860 11.8240 92° East 557 641 35,000  Level FlightAware
03:53AM 56.1820 12.0260 92° East 558 642 35,000  Level FlightAware
03:54AM 56.1780 12.2120 92° East 560 644 35,000  Level FlightAware
03:54AM 56.1730 12.4170 92° East 562 647 35,000  Level FlightAware
03:55AM 56.1680 12.6120 93° East 561 646 35,000  Level FlightAware
03:56AM 56.1640 12.7890 92° East 562 647 35,000  Level FlightAware
03:56AM 56.1580 13.0040 93° East 562 647 35,000  Level FlightAware
03:57AM 56.1520 13.1890 93° East 559 643 35,000  Level FlightAware
03:58AM 56.1460 13.3750 93° East 557 641 35,000  Level FlightAware
03:59AM 56.1400 13.5730 93° East 555 639 35,000  Level FlightAware
03:59AM 56.1340 13.7560 93° East 554 638 35,000  Level FlightAware
04:00AM 56.1260 13.9730 94° East 553 636 35,000  Level FlightAware
04:01AM 56.1190 14.1490 94° East 555 639 35,000  Level FlightAware
04:01AM 56.1120 14.3430 94° East 556 640 35,000  Level FlightAware
04:02AM 56.1040 14.5360 94° East 555 639 35,000  Level FlightAware
04:03AM 56.0960 14.7260 94° East 556 640 35,000  Level FlightAware
04:03AM 56.0870 14.9310 94° East 557 641 35,000  Level FlightAware
04:04AM 56.0790 15.1000 95° East 558 642 35,000  Level FlightAware
04:05AM 56.0700 15.3010 95° East 558 642 35,000  Level FlightAware
04:05AM 56.0620 15.4610 95° East 559 643 35,000  Level FlightAware
04:06AM 56.0510 15.6910 95° East 559 643 35,000  Level FlightAware
04:07AM 56.0400 15.9020 95° East 558 642 35,000  Level FlightAware
04:08AM 56.0300 16.0760 96° East 558 642 35,000  Level FlightAware
04:08AM 56.0200 16.2650 95° East 557 641 35,000  Level FlightAware
04:09AM 56.0090 16.4660 96° East 557 641 35,000  Level FlightAware
04:10AM 55.9970 16.6720 96° East 559 643 35,000  Level FlightAware
04:10AM 55.9850 16.8630 96° East 560 644 35,000  Level FlightAware
04:11AM 55.9740 17.0550 96° East 561 646 35,000  Level FlightAware
04:12AM 55.9620 17.2400 97° East 562 647 35,000  Level FlightAware
04:13AM 55.9500 17.4240 97° East 561 646 35,000  Level FlightAware
04:13AM 55.9360 17.6410 96° East 562 647 35,000  Level FlightAware
04:14AM 55.9230 17.8170 97° East 565 650 35,000  Level FlightAware
04:15AM 55.9060 18.0110 99° East 567 652 35,000  Level FlightAware
04:15AM 55.8890 18.2140 98° East 569 655 35,000  Level FlightAware
04:16AM 55.8720 18.4010 99° East 573 659 35,000  Level FlightAware
04:17AM 55.8540 18.6080 99° East 579 666 35,000  Level FlightAware
04:17AM 55.8370 18.8020 99° East 579 666 35,000  Level FlightAware
04:18AM 55.8190 18.9900 100° East 577 664 35,000  Level FlightAware
04:19AM 55.7950 19.1900 102° East 572 658 35,000  Level FlightAware
04:20AM 55.7680 19.3710 105° East 571 657 35,000  Level FlightAware
04:20AM 55.7370 19.5740 105° East 574 661 35,000  Level FlightAware
04:21AM 55.7080 19.7540 106° East 577 664 35,000  Level FlightAware
04:22AM 55.6800 19.9300 106° East 576 663 35,000  Level FlightAware
04:22AM 55.6460 20.1470 105° East 577 664 35,000  Level FlightAware
04:23AM 55.6170 20.3250 106° East 577 664 35,000  Level FlightAware
04:24AM 55.5840 20.5270 106° East 577 664 35,000  Level FlightAware
04:24AM 55.5550 20.7010 106° East 578 665 35,000  Level FlightAware
04:25AM 55.5240 20.8850 107° East 577 664 35,000  Level FlightAware
04:26AM 55.4900 21.0920 106° East 577 664 35,000  Level FlightAware
04:27AM 55.4590 21.2720 107° East 576 663 35,000  Level FlightAware
04:27AM 55.4280 21.4520 107° East 576 663 35,000  Level FlightAware
04:28AM 55.3940 21.6480 107° East 574 661 35,000  Level FlightAware
04:29AM 55.3620 21.8290 107° East 572 658 35,000  Level FlightAware
04:29AM 55.3260 22.0270 108° East 572 658 35,000  Level FlightAware
04:30AM 55.2950 22.2020 107° East 570 656 35,000  Level FlightAware
04:31AM 55.2600 22.3940 108° East 567 652 35,000  Level FlightAware
04:31AM 55.2270 22.5750 108° East 568 654 35,000  Level FlightAware
04:32AM 55.1990 22.7240 108° East 567 652 35,000  Level FlightAware
04:33AM 55.1630 22.9460 106° East 571 657 35,000  Level FlightAware
04:34AM 55.1350 23.1270 105° East 570 656 35,000  Level FlightAware
04:34AM 55.1040 23.3270 105° East 568 654 35,000  Level FlightAware
04:35AM 55.0760 23.5030 105° East 567 652 35,000  Level FlightAware
04:36AM 55.0480 23.6800 105° East 568 654 35,000  Level FlightAware
04:36AM 55.0150 23.8800 106° East 570 656 35,000  Level FlightAware
04:37AM 54.9860 24.0490 107° East 568 654 35,000  Level FlightAware
04:38AM 54.9570 24.2250 106° East 568 654 35,000  Level FlightAware
04:38AM 54.9230 24.4240 106° East 567 652 35,000  Level FlightAware
04:39AM 54.8920 24.6050 107° East 563 648 35,000  Level FlightAware
04:40AM 54.8610 24.7880 106° East 562 647 35,000  Level FlightAware
04:41AM 54.8310 24.9580 107° East 560 644 35,000  Level FlightAware
04:41AM 54.7970 25.1520 107° East 560 644 35,000  Level FlightAware
04:42AM 54.7650 25.3300 107° East 559 643 35,000  Level FlightAware
04:43AM 54.7310 25.5220 107° East 559 643 35,000  Level FlightAware
04:43AM 54.7010 25.6850 108° East 558 642 35,000  Level FlightAware
04:44AM 54.6710 25.8530 107° East 559 643 35,000  Level FlightAware
04:45AM 54.6360 26.0520 107° East 558 642 35,000  Level FlightAware
04:45AM 54.6050 26.2220 107° East 556 640 35,000  Level FlightAware
04:46AM 54.5720 26.4080 107° East 555 639 35,000  Level FlightAware
04:47AM 54.5410 26.5760 108° East 553 636 35,000  Level FlightAware
04:48AM 54.5090 26.7480 108° East 552 635 35,000  Level FlightAware
04:48AM 54.4740 26.9320 108° East 551 634 35,000  Level FlightAware
04:49AM 54.4440 27.0870 108° East 550 633 35,000  Level FlightAware
04:50AM 54.4060 27.2810 109° East 551 634 35,000  Level FlightAware
04:50AM 54.3770 27.4290 109° East 550 633 35,000  Level FlightAware
04:51AM 54.3400 27.6120 109° East 549 632 35,000  Level FlightAware
04:52AM 54.2980 27.8220 109° East 549 632 35,000  Level FlightAware
04:53AM 54.2700 27.9620 109° East 549 632 35,000  Level FlightAware
04:53AM 54.2230 28.1890 109° East 548 631 35,000  Level FlightAware
04:54AM 54.1880 28.3580 109° East 548 631 35,000  Level FlightAware
04:55AM 54.1530 28.5270 109° East 546 628 35,000  Level FlightAware
04:56AM 54.1140 28.7130 110° East 545 627 35,000  Level FlightAware
04:56AM 54.0900 28.8280 110° East 544 626 35,000  Level FlightAware
04:57AM 54.0480 29.0220 110° East 543 625 35,000  Level FlightAware
04:58AM 54.0050 29.2120 111° Southeast 541 623 35,000  Level FlightAware
04:58AM 53.9760 29.3410 111° Southeast 540 621 35,000  Level FlightAware
04:59AM 53.9400 29.5030 111° Southeast 540 621 35,000  Level FlightAware
05:00AM 53.9090 29.6380 111° Southeast 540 621 35,000  Level FlightAware
05:00AM 53.8790 29.7720 111° Southeast 540 621 35,000  Level FlightAware
05:01AM 53.8410 29.9400 111° Southeast 540 621 35,000  Level FlightAware
05:02AM 53.8180 30.0410 111° Southeast 540 621 35,000  Level FlightAware
05:02AM 53.7800 30.2090 111° Southeast 540 621 35,000  Level FlightAware
05:03AM 53.7490 30.3430 111° Southeast 540 621 35,000  Level FlightAware
05:04AM 53.7190 30.4770 111° Southeast 540 621 35,000 1,140 Level FlightAware
05:05AM 53.6140 30.8870 113° Southeast 545 627 37,000 1,380 Climbing FlightAware
05:05AM 53.5980 30.9540 112° Southeast 545 627 37,000  Level FlightAware
05:06AM 53.5580 31.1210 112° Southeast 545 627 37,000  Level FlightAware
05:07AM 53.5260 31.2550 112° Southeast 545 627 37,000  Level FlightAware
05:07AM 53.4940 31.3890 112° Southeast 545 627 37,000  Level FlightAware
05:08AM 53.4620 31.5220 112° Southeast 545 627 37,000  Level FlightAware
05:09AM 53.4300 31.6560 112° Southeast 545 627 37,000  Level FlightAware
05:09AM 53.3970 31.7890 113° Southeast 545 627 37,000  Level FlightAware
05:10AM 53.3570 31.9550 112° Southeast 545 627 37,000  Level FlightAware
05:11AM 53.3250 32.0890 112° Southeast 545 627 37,000  Level FlightAware
05:12AM 53.2930 32.2220 112° Southeast 545 627 37,000  Level FlightAware
05:12AM 53.1910 32.6270 113° Southeast 545 627 37,000  Level FlightAware
05:13AM 53.1650 32.7880 105° East 543 625 37,000  Level FlightAware
05:14AM 53.1270 33.0270 105° East 542 624 37,000  Level FlightAware
05:15AM 53.0980 33.2070 105° East 542 624 37,000  Level FlightAware
05:15AM 53.0740 33.3570 105° East 542 624 37,000  Level FlightAware
05:16AM 53.0420 33.5530 105° East 542 624 37,000  Level FlightAware
05:17AM 53.0150 33.7120 106° East 540 621 37,000  Level FlightAware
05:17AM 52.9890 33.8690 105° East 539 620 37,000  Level FlightAware
05:18AM 52.9590 34.0470 106° East 539 620 37,000  Level FlightAware
05:19AM 52.9310 34.2080 106° East 540 621 37,000  Level FlightAware
05:20AM 52.9010 34.3830 106° East 539 620 37,000  Level FlightAware
05:20AM 52.8730 34.5410 106° East 538 619 37,000  Level FlightAware
05:21AM 52.8450 34.6990 106° East 538 619 37,000  Level FlightAware
05:22AM 52.8360 34.7460 108° East 537 618 37,000  Level FlightAware
05:22AM 52.7870 35.0200 106° East 538 619 37,000  Level FlightAware
05:23AM 52.7600 35.1720 106° East 537 618 37,000  Level FlightAware
05:24AM 52.7250 35.3610 107° East 535 616 37,000  Level FlightAware
05:24AM 52.6970 35.5110 107° East 534 615 37,000  Level FlightAware
05:25AM 52.6650 35.6870 107° East 532 612 37,000  Level FlightAware
05:26AM 52.6360 35.8400 107° East 530 610 37,000  Level FlightAware
05:26AM 52.6110 35.9750 107° East 528 608 37,000  Level FlightAware
05:27AM 52.5740 36.1660 108° East 528 608 37,000  Level FlightAware
05:28AM 52.5460 36.3150 107° East 525 604 37,000  Level FlightAware
05:28AM 52.5190 36.4520 108° East 524 603 37,000  Level FlightAware
05:29AM 52.4840 36.6280 108° East 521 600 37,000  Level FlightAware
05:30AM 52.4510 36.7990 108° East 522 601 37,000  Level FlightAware
05:31AM 52.4210 36.9550 107° East 520 598 37,000  Level FlightAware
05:31AM 52.3920 37.0970 108° East 516 594 37,000  Level FlightAware
05:32AM 52.3580 37.2690 108° East 514 592 37,000  Level FlightAware
05:33AM 52.3280 37.4200 108° East 513 590 37,000  Level FlightAware
05:34AM 52.2950 37.5820 108° East 515 593 37,000  Level FlightAware
05:34AM 52.2690 37.7300 106° East 522 601 37,000  Level FlightAware
05:35AM 52.2350 37.8710 111° Southeast 518 596 37,000  Level FlightAware
05:36AM 52.1900 38.0910 108° East 514 592 37,000  Level FlightAware
05:37AM 52.1470 38.3000 108° East 514 592 37,000  Level FlightAware
05:38AM 52.1220 38.4260 108° East 514 592 37,000  Level FlightAware
05:38AM 52.0970 38.5510 108° East 514 592 37,000  Level FlightAware
05:39AM 52.0660 38.7070 108° East 514 592 37,000  Level FlightAware
05:40AM 52.0410 38.8320 108° East 514 592 37,000  Level FlightAware
05:40AM 52.0160 38.9570 108° East 514 592 37,000  Level FlightAware
05:41AM 51.9910 39.0820 108° East 514 592 37,000  Level FlightAware
05:42AM 51.9660 39.2070 108° East 514 592 37,000  Level FlightAware
05:43AM 51.9340 39.3630 108° East 514 592 37,000  Level FlightAware
05:43AM 51.9090 39.4870 108° East 514 592 37,000  Level FlightAware
05:44AM 51.8840 39.6120 108° East 514 592 37,000  Level FlightAware
05:45AM 51.8590 39.7370 108° East 514 592 37,000  Level FlightAware
05:45AM 51.8340 39.8610 108° East 514 592 37,000  Level FlightAware
05:46AM 51.8030 40.0170 108° East 514 592 37,000  Level FlightAware
05:46AM 51.2620 39.9730 183° South 524 603 37,000  Level FlightAware
05:47AM 51.1920 40.0660 140° Southeast 523 602 37,000  Level FlightAware
05:47AM 51.1560 40.1140 140° Southeast 522 601 37,000  Level FlightAware
05:48AM 51.0620 40.2370 141° Southeast 524 603 37,000  Level FlightAware
05:49AM 50.9770 40.3480 141° Southeast 522 601 37,000  Level FlightAware
05:50AM 50.9040 40.4420 141° Southeast 524 603 37,000  Level FlightAware
05:50AM 50.8270 40.5430 140° Southeast 526 605 37,000  Level FlightAware
05:51AM 50.7520 40.6670 134° Southeast 528 608 37,000  Level FlightAware
05:52AM 50.6930 40.7900 127° Southeast 526 605 37,000  Level FlightAware
05:52AM 50.6390 40.9070 126° Southeast 527 606 37,000  Level FlightAware
05:53AM 50.5700 41.0530 127° Southeast 526 605 37,000  Level FlightAware
05:54AM 50.5130 41.1760 126° Southeast 527 606 37,000  Level FlightAware
05:55AM 50.4460 41.3150 127° Southeast 527 606 37,000  Level FlightAware
05:55AM 50.3880 41.4370 127° Southeast 529 609 37,000  Level FlightAware
05:56AM 50.3290 41.5600 127° Southeast 530 610 37,000  Level FlightAware
05:57AM 50.2630 41.6960 127° Southeast 530 610 37,000  Level FlightAware
05:57AM 50.2030 41.8210 127° Southeast 530 610 37,000  Level FlightAware
05:58AM 50.1360 41.9570 128° Southeast 530 610 37,000  Level FlightAware
05:59AM 50.0770 42.0770 127° Southeast 531 611 37,000  Level FlightAware
05:59AM 50.0160 42.1990 128° Southeast 531 611 37,000  Level FlightAware
06:00AM 49.9480 42.3350 128° Southeast 532 612 37,000  Level FlightAware
06:01AM 49.8890 42.4540 128° Southeast 533 613 37,000  Level FlightAware
06:01AM 49.8280 42.5750 128° Southeast 533 613 37,000  Level FlightAware
06:02AM 49.7600 42.7090 128° Southeast 532 612 37,000  Level FlightAware
06:03AM 49.6930 42.8410 128° Southeast 530 610 37,000  Level FlightAware
06:05AM 49.5561 43.0826 131° Southeast  Level Estimated
06:06AM 49.4675 43.2377 131° Southeast  Level Estimated
06:07AM 49.3787 43.3922 131° Southeast  Level Estimated
06:08AM 49.2897 43.5462 132° Southeast  Level Estimated
06:09AM 49.2005 43.6997 132° Southeast  Level Estimated
06:10AM 49.1111 43.8526 132° Southeast  Level Estimated
06:10AM 49.0060 44.0330 132° Southeast 524 603 37,000  Level FlightAware
06:11AM 48.9300 44.1380 138° Southeast 520 598 37,000  Level FlightAware
06:11AM 48.8660 44.2280 137° Southeast 520 598 37,000  Level FlightAware
06:12AM 48.7850 44.3360 139° Southeast 518 596 37,000  Level FlightAware
06:13AM 48.6940 44.4330 145° Southeast 518 596 37,000  Level FlightAware
06:14AM 48.6030 44.5270 146° Southeast 519 597 37,000  Level FlightAware
06:14AM 48.5350 44.5970 146° Southeast 519 597 37,000  Level FlightAware
06:15AM 48.4470 44.6870 146° Southeast 521 600 37,000  Level FlightAware
06:16AM 48.3560 44.7800 146° Southeast 520 598 37,000  Level FlightAware
06:16AM 48.2870 44.8500 146° Southeast 520 598 37,000  Level FlightAware
06:17AM 48.1830 44.9550 146° Southeast 518 596 37,000  Level FlightAware
06:18AM 48.0960 45.0430 146° Southeast 514 592 37,000  Level FlightAware
06:19AM 48.0040 45.1340 146° Southeast 513 590 37,000  Level FlightAware
06:19AM 47.9260 45.2120 146° Southeast 510 587 37,000  Level FlightAware
06:20AM 47.8350 45.3010 147° Southeast 510 587 37,000  Level FlightAware
06:21AM 47.7700 45.3640 147° Southeast 510 587 37,000  Level FlightAware
06:22AM 47.6660 45.4650 147° Southeast 511 588 37,000  Level FlightAware
06:22AM 47.5900 45.5400 146° Southeast 509 586 37,000  Level FlightAware
06:23AM 47.5310 45.5980 146° Southeast 509 586 37,000  Level FlightAware
06:24AM 47.4030 45.7200 147° Southeast 507 583 37,000  Level FlightAware
06:25AM 47.3270 45.7930 147° Southeast 507 583 37,000  Level FlightAware
06:25AM 47.2230 45.8930 147° Southeast 506 582 37,000  Level FlightAware
06:26AM 47.1460 45.9660 147° Southeast 504 580 37,000  Level FlightAware
06:27AM 47.0920 46.0180 147° Southeast 505 581 37,000  Level FlightAware
06:27AM 46.9800 46.1230 147° Southeast 502 578 37,000  Level FlightAware
06:28AM 46.9010 46.1980 147° Southeast 499 574 37,000  Level FlightAware
06:29AM 46.8250 46.2690 147° Southeast 497 572 37,000 180 Level FlightAware
06:30AM 46.7380 46.3510 147° Southeast 500 575 37,300 600 Climbing FlightAware
06:30AM 46.6590 46.4250 147° Southeast 501 577 37,900 720 Climbing FlightAware
06:31AM 46.5810 46.4980 147° Southeast 507 583 38,300 660 Climbing FlightAware
06:31AM 46.5250 46.5560 145° Southeast 507 583 38,700 540 Climbing FlightAware
06:32AM 46.4580 46.6720 130° Southeast 507 583 39,000 180 Climbing FlightAware
06:33AM 46.4010 46.7680 131° Southeast 504 580 39,000  Level FlightAware
06:33AM 46.3350 46.8740 132° Southeast 504 580 39,000  Level FlightAware
06:34AM 46.2720 46.9740 132° Southeast 506 582 39,000  Level FlightAware
06:35AM 46.2050 47.0880 130° Southeast 507 583 39,000  Level FlightAware
06:36AM 46.1420 47.1950 130° Southeast 508 585 39,000  Level FlightAware
06:36AM 46.0750 47.3080 130° Southeast 505 581 39,000  Level FlightAware
06:37AM 46.0140 47.4120 130° Southeast 505 581 39,000  Level FlightAware
06:38AM 45.9540 47.5140 130° Southeast 503 579 39,000  Level FlightAware
06:38AM 45.9030 47.6000 130° Southeast 500 575 39,000  Level FlightAware
06:39AM 45.8100 47.7580 130° Southeast 501 577 39,000  Level FlightAware
06:40AM 45.7260 47.8990 130° Southeast 503 579 39,000  Level FlightAware
06:41AM 45.6530 48.0210 131° Southeast 505 581 39,000  Level FlightAware
06:42AM 45.5700 48.1580 131° Southeast 505 581 39,000  Level FlightAware
06:43AM 45.5090 48.2590 131° Southeast 507 583 39,000  Level FlightAware
06:43AM 45.4400 48.3730 131° Southeast 506 582 39,000  Level FlightAware
06:44AM 45.3770 48.4750 131° Southeast 504 580 39,000  Level FlightAware
06:45AM 45.3090 48.5870 131° Southeast 500 575 39,000  Level FlightAware
06:45AM 45.2490 48.6850 131° Southeast 499 574 39,000  Level FlightAware
06:46AM 45.1880 48.7830 131° Southeast 497 572 39,000  Level FlightAware
06:47AM 45.1260 48.8840 131° Southeast 496 571 39,000  Level FlightAware
06:47AM 45.0610 48.9880 131° Southeast 495 570 39,000  Level FlightAware
06:48AM 44.9920 49.1000 131° Southeast 493 567 39,000  Level FlightAware
06:49AM 44.9330 49.1930 132° Southeast 493 567 39,000  Level FlightAware
06:50AM 44.8710 49.2930 131° Southeast 494 568 39,000  Level FlightAware
06:50AM 44.8040 49.3980 132° Southeast 495 570 39,000  Level FlightAware
06:51AM 44.7420 49.4980 131° Southeast 497 572 39,000  Level FlightAware
06:52AM 44.6760 49.6180 128° Southeast 504 580 39,000  Level FlightAware
06:52AM 44.6210 49.7220 127° Southeast 504 580 39,000  Level FlightAware
06:53AM 44.5650 49.8250 127° Southeast 504 580 39,000  Level FlightAware
06:54AM 44.5020 49.9420 127° Southeast 508 585 39,000  Level FlightAware
06:54AM 44.4450 50.0470 127° Southeast 508 585 39,000  Level FlightAware
06:55AM 44.3800 50.1640 128° Southeast 509 586 39,000  Level FlightAware
06:56AM 44.3240 50.2680 127° Southeast 508 585 39,000  Level FlightAware
06:57AM 44.2670 50.3710 128° Southeast 507 583 39,000  Level FlightAware
06:57AM 44.2030 50.4860 128° Southeast 509 586 39,000  Level FlightAware
06:58AM 44.1520 50.5780 128° Southeast 509 586 39,000  Level FlightAware
06:59AM 44.0960 50.6830 127° Southeast 509 586 39,000  Level FlightAware
06:59AM 44.0480 50.7720 127° Southeast 509 586 39,000  Level FlightAware
07:00AM 43.9990 50.8610 127° Southeast 509 586 39,000  Level FlightAware
07:01AM 43.9390 50.9720 127° Southeast 509 586 39,000  Level FlightAware
07:01AM 43.8910 51.0600 127° Southeast 509 586 39,000  Level FlightAware
07:02AM 43.8430 51.1490 127° Southeast 509 586 39,000  Level FlightAware
07:03AM 43.7950 51.2380 127° Southeast 509 586 39,000  Level FlightAware
07:03AM 43.7460 51.3260 128° Southeast 509 586 39,000  Level FlightAware
07:04AM 43.6860 51.4370 127° Southeast 509 586 39,000  Level FlightAware
07:05AM 43.6380 51.5250 127° Southeast 509 586 39,000  Level FlightAware
07:06AM 43.5900 51.6130 127° Southeast 509 586 39,000  Level FlightAware
07:06AM 43.5410 51.7020 127° Southeast 509 586 39,000  Level FlightAware
07:07AM 43.4930 51.7900 127° Southeast 509 586 39,000  Level FlightAware
07:08AM 43.4330 51.9000 127° Southeast 509 586 39,000  Level FlightAware
07:10AM 43.2628 52.1138 138° Southeast  Level Estimated
07:11AM 43.1635 52.2378 138° Southeast  Level Estimated
07:12AM 43.0640 52.3615 138° Southeast  Level Estimated
07:13AM 42.9644 52.4847 138° Southeast  Level Estimated
07:14AM 42.8647 52.6075 138° Southeast  Level Estimated
07:15AM 42.7648 52.7299 138° Southeast  Level Estimated
07:16AM 42.6648 52.8519 138° Southeast  Level Estimated
07:17AM 42.5647 52.9735 138° Southeast  Level Estimated
07:18AM 42.4645 53.0947 138° Southeast  Level Estimated
07:19AM 42.3641 53.2156 138° Southeast  Level Estimated
07:20AM 42.2636 53.3361 138° Southeast  Level Estimated
07:21AM 42.1630 53.4561 138° Southeast  Level Estimated
07:22AM 42.0622 53.5758 139° Southeast  Level Estimated
07:23AM 41.9614 53.6952 139° Southeast  Level Estimated
07:24AM 41.8604 53.8141 139° Southeast  Level Estimated
07:25AM 41.7592 53.9327 139° Southeast  Level Estimated
07:26AM 41.6580 54.0508 139° Southeast  Level Estimated
07:27AM 41.5566 54.1687 139° Southeast  Level Estimated
07:28AM 41.4552 54.2861 139° Southeast  Level Estimated
07:29AM 41.3536 54.4032 139° Southeast  Level Estimated
07:30AM 41.2518 54.5199 139° Southeast  Level Estimated
07:31AM 41.1500 54.6363 139° Southeast  Level Estimated
07:32AM 41.0480 54.7523 139° Southeast  Level Estimated
07:33AM 40.9460 54.8679 139° Southeast  Level Estimated
07:34AM 40.8438 54.9832 140° Southeast  Level Estimated
07:35AM 40.7415 55.0981 140° Southeast  Level Estimated
07:36AM 40.6391 55.2127 140° Southeast  Level Estimated
07:37AM 40.5366 55.3269 140° Southeast  Level Estimated
07:38AM 40.4339 55.4408 140° Southeast  Level Estimated
07:39AM 40.3312 55.5543 140° Southeast  Level Estimated
07:40AM 40.2283 55.6674 140° Southeast  Level Estimated
07:41AM 40.1254 55.7803 140° Southeast  Level Estimated
07:42AM 40.0223 55.8928 140° Southeast  Level Estimated
07:43AM 39.9191 56.0049 140° Southeast  Level Estimated
07:44AM 39.8158 56.1167 140° Southeast  Level Estimated
07:45AM 39.7124 56.2282 140° Southeast  Level Estimated
07:46AM 39.6089 56.3394 140° Southeast  Level Estimated
07:47AM 39.5053 56.4502 140° Southeast  Level Estimated
07:48AM 39.4016 56.5606 141° Southeast  Level Estimated
07:49AM 39.2977 56.6708 141° Southeast  Level Estimated
07:50AM 39.1938 56.7806 141° Southeast  Level Estimated
07:51AM 39.0898 56.8901 141° Southeast  Level Estimated
07:52AM 38.9856 56.9993 141° Southeast  Level Estimated
07:53AM 38.8814 57.1082 141° Southeast  Level Estimated
07:54AM 38.7771 57.2167 141° Southeast  Level Estimated
07:55AM 38.6726 57.3249 141° Southeast  Level Estimated
07:56AM 38.5681 57.4328 141° Southeast  Level Estimated
07:57AM 38.4635 57.5404 141° Southeast  Level Estimated
07:58AM 38.3588 57.6477 141° Southeast  Level Estimated
07:59AM 38.2539 57.7547 141° Southeast  Level Estimated
08:00AM 38.1490 57.8613 141° Southeast  Level Estimated
08:01AM 38.0440 57.9677 141° Southeast  Level Estimated
08:02AM 37.9389 58.0737 141° Southeast  Level Estimated
08:03AM 37.8337 58.1795 142° Southeast  Level Estimated
08:04AM 37.7284 58.2849 142° Southeast  Level Estimated
08:05AM 37.6230 58.3901 142° Southeast  Level Estimated
08:06AM 37.5175 58.4949 142° Southeast  Level Estimated
08:07AM 37.4118 58.5996 142° Southeast  Level Estimated
08:08AM 37.3060 58.7040 142° Southeast  Level Estimated
08:09AM 37.2001 58.8081 142° Southeast  Level Estimated
08:10AM 37.0941 58.9119 142° Southeast  Level Estimated
08:11AM 36.9880 59.0154 142° Southeast  Level Estimated
08:12AM 36.8819 59.1186 142° Southeast  Level Estimated
08:13AM 36.7756 59.2215 142° Southeast  Level Estimated
08:14AM 36.6693 59.3242 142° Southeast  Level Estimated
08:15AM 36.5629 59.4266 142° Southeast  Level Estimated
08:16AM 36.4563 59.5286 142° Southeast  Level Estimated
08:17AM 36.3497 59.6304 142° Southeast  Level Estimated
08:18AM 36.2430 59.7320 142° Southeast  Level Estimated
08:19AM 36.1363 59.8332 143° Southeast  Level Estimated
08:20AM 36.0294 59.9342 143° Southeast  Level Estimated
08:21AM 35.9225 60.0349 143° Southeast  Level Estimated
08:22AM 35.8154 60.1353 143° Southeast  Level Estimated
08:23AM 35.7083 60.2355 143° Southeast  Level Estimated
08:24AM 35.6012 60.3353 143° Southeast  Level Estimated
08:25AM 35.4939 60.4350 143° Southeast  Level Estimated
08:26AM 35.3865 60.5343 143° Southeast  Level Estimated
08:27AM 35.2791 60.6334 143° Southeast  Level Estimated
08:28AM 35.1716 60.7322 143° Southeast  Level Estimated
08:29AM 35.0640 60.8308 143° Southeast  Level Estimated
08:30AM 34.9563 60.9291 143° Southeast  Level Estimated
08:31AM 34.8485 61.0271 143° Southeast  Level Estimated
08:32AM 34.7407 61.1249 143° Southeast  Level Estimated
08:33AM 34.6328 61.2225 143° Southeast  Level Estimated
08:34AM 34.5248 61.3198 143° Southeast  Level Estimated
08:35AM 34.4167 61.4168 143° Southeast  Level Estimated
08:36AM 34.3086 61.5136 144° Southeast  Level Estimated
08:37AM 34.2004 61.6101 144° Southeast  Level Estimated
08:38AM 34.0921 61.7064 144° Southeast  Level Estimated
08:39AM 33.9837 61.8024 144° Southeast  Level Estimated
08:40AM 33.8753 61.8982 144° Southeast  Level Estimated
08:41AM 33.7667 61.9938 144° Southeast  Level Estimated
08:42AM 33.6581 62.0891 144° Southeast  Level Estimated
08:43AM 33.5495 62.1841 144° Southeast  Level Estimated
08:44AM 33.4408 62.2790 144° Southeast  Level Estimated
08:45AM 33.3319 62.3736 144° Southeast  Level Estimated
08:46AM 33.2231 62.4679 144° Southeast  Level Estimated
08:47AM 33.1141 62.5620 144° Southeast  Level Estimated
08:48AM 33.0051 62.6559 144° Southeast  Level Estimated
08:49AM 32.8960 62.7496 144° Southeast  Level Estimated
08:50AM 32.7868 62.8430 144° Southeast  Level Estimated
08:51AM 32.6776 62.9362 144° Southeast  Level Estimated
08:52AM 32.5683 63.0291 144° Southeast  Level Estimated
08:53AM 32.4589 63.1219 144° Southeast  Level Estimated
08:54AM 32.3495 63.2144 144° Southeast  Level Estimated
08:55AM 32.2400 63.3067 145° Southeast  Level Estimated
08:56AM 32.1304 63.3988 145° Southeast  Level Estimated
08:57AM 32.0208 63.4906 145° Southeast  Level Estimated
08:58AM 31.9111 63.5822 145° Southeast  Level Estimated
08:59AM 31.8013 63.6737 145° Southeast  Level Estimated
09:00AM 31.6915 63.7649 145° Southeast  Level Estimated
09:01AM 31.5816 63.8558 145° Southeast  Level Estimated
09:02AM 31.4716 63.9466 145° Southeast  Level Estimated
09:03AM 31.3616 64.0371 145° Southeast  Level Estimated
09:04AM 31.2515 64.1275 145° Southeast  Level Estimated
09:05AM 31.1414 64.2176 145° Southeast  Level Estimated
09:06AM 31.0312 64.3075 145° Southeast  Level Estimated
09:07AM 30.9209 64.3972 145° Southeast  Level Estimated
09:08AM 30.8105 64.4867 145° Southeast  Level Estimated
09:09AM 30.7001 64.5760 145° Southeast  Level Estimated
09:10AM 30.5897 64.6651 145° Southeast  Level Estimated
09:11AM 30.4792 64.7540 145° Southeast  Level Estimated
09:12AM 30.3686 64.8427 145° Southeast  Level Estimated
09:13AM 30.2579 64.9312 145° Southeast  Level Estimated
09:14AM 30.1472 65.0195 145° Southeast  Level Estimated
09:15AM 30.0365 65.1076 145° Southeast  Level Estimated
09:16AM 29.9257 65.1955 145° Southeast  Level Estimated
09:17AM 29.8148 65.2832 146° Southeast  Level Estimated
09:18AM 29.7038 65.3707 146° Southeast  Level Estimated
09:19AM 29.5929 65.4580 146° Southeast  Level Estimated
09:20AM 29.4818 65.5451 146° Southeast  Level Estimated
09:21AM 29.3707 65.6321 146° Southeast  Level Estimated
09:22AM 29.2595 65.7188 146° Southeast  Level Estimated
09:23AM 29.1483 65.8054 146° Southeast  Level Estimated
09:24AM 29.0371 65.8917 146° Southeast  Level Estimated
09:25AM 28.9257 65.9779 146° Southeast  Level Estimated
09:26AM 28.8143 66.0639 146° Southeast  Level Estimated
09:27AM 28.7029 66.1497 146° Southeast  Level Estimated
09:28AM 28.5914 66.2353 146° Southeast  Level Estimated
09:29AM 28.4799 66.3208 146° Southeast  Level Estimated
09:30AM 28.3683 66.4061 146° Southeast  Level Estimated
09:31AM 28.2566 66.4911 146° Southeast  Level Estimated
09:32AM 28.1449 66.5760 146° Southeast  Level Estimated
09:33AM 28.0332 66.6608 146° Southeast  Level Estimated
09:34AM 27.9214 66.7453 146° Southeast  Level Estimated
09:34AM 27.4670 67.6040 146° Southeast 498 573 39,000  Level FlightAware
09:35AM 27.8095 66.8297 146° Southeast  Level Estimated
09:35AM 27.3910 67.6540 150° Southeast 502 578 39,000  Level FlightAware
09:36AM 27.2970 67.7140 150° Southeast 501 577 39,000  Level FlightAware
09:36AM 27.2190 67.7650 150° Southeast 500 575 39,000  Level FlightAware
09:37AM 27.1370 67.8170 151° Southeast 499 574 39,000  Level FlightAware
09:38AM 27.0500 67.8740 150° Southeast 500 575 39,000  Level FlightAware
09:38AM 26.9640 67.9280 151° Southeast 500 575 39,000  Level FlightAware
09:39AM 26.8750 67.9830 151° Southeast 499 574 39,000  Level FlightAware
09:40AM 26.7950 68.0320 151° Southeast 500 575 39,000  Level FlightAware
09:40AM 26.7130 68.0830 151° Southeast 503 579 39,000  Level FlightAware
09:41AM 26.6190 68.1400 152° Southeast 504 580 39,000  Level FlightAware
09:42AM 26.5360 68.1910 151° Southeast 506 582 39,000  Level FlightAware
09:42AM 26.4580 68.2390 151° Southeast 507 583 39,000  Level FlightAware
09:43AM 26.3610 68.2990 151° Southeast 509 586 39,000  Level FlightAware
09:44AM 26.2790 68.3480 152° Southeast 511 588 39,000  Level FlightAware
09:45AM 26.1920 68.3880 158° South 495 570 39,000  Level FlightAware
09:45AM 26.0940 68.4100 169° South 488 562 39,000  Level FlightAware
09:46AM 26.0050 68.4260 171° South 487 560 39,000  Level FlightAware
09:47AM 25.9020 68.4440 171° South 488 562 39,000  Level FlightAware
09:47AM 25.8120 68.4600 171° South 494 568 39,000  Level FlightAware
09:48AM 25.7220 68.4770 170° South 498 573 39,000  Level FlightAware
09:49AM 25.6200 68.4950 171° South 498 573 39,000  Level FlightAware
09:50AM 25.5160 68.5150 170° South 497 572 39,000  Level FlightAware
09:50AM 25.4240 68.5310 171° South 497 572 39,000  Level FlightAware
09:51AM 25.3260 68.5490 171° South 496 571 39,000  Level FlightAware
09:52AM 25.2360 68.5660 170° South 496 571 39,000  Level FlightAware
09:52AM 25.1450 68.5820 171° South 497 572 39,000  Level FlightAware
09:53AM 25.0400 68.6010 171° South 497 572 39,000  Level FlightAware
09:54AM 24.9480 68.6170 171° South 497 572 39,000  Level FlightAware
09:54AM 24.8480 68.6360 170° South 498 573 39,000  Level FlightAware
09:55AM 24.7580 68.6520 171° South 497 572 39,000  Level FlightAware
09:56AM 24.6520 68.6710 171° South 496 571 39,000  Level FlightAware
09:57AM 24.5620 68.6870 171° South 497 572 39,000  Level FlightAware
09:57AM 24.4690 68.7040 171° South 497 572 39,000  Level FlightAware
09:58AM 24.3700 68.7220 171° South 499 574 39,000  Level FlightAware
09:59AM 24.2770 68.7380 171° South 500 575 39,000  Level FlightAware
09:59AM 24.1740 68.7610 168° South 510 587 39,000  Level FlightAware
10:00AM 24.1050 68.8290 138° Southeast 532 612 39,000  Level FlightAware
10:01AM 24.0710 68.9340 110° East 536 617 39,000  Level FlightAware
10:01AM 24.0430 69.0500 105° East 531 611 39,000  Level FlightAware
10:02AM 24.0210 69.1390 105° East 527 606 39,000  Level FlightAware
10:03AM 23.9880 69.2670 106° East 524 603 39,000  Level FlightAware
10:04AM 23.9610 69.3670 106° East 524 603 39,000  Level FlightAware
10:04AM 23.9280 69.4950 106° East 524 603 39,000  Level FlightAware
10:05AM 23.9050 69.5820 106° East 524 603 39,000  Level FlightAware
10:06AM 23.8690 69.7140 107° East 522 601 39,000  Level FlightAware
10:07AM 23.8350 69.8410 106° East 522 601 39,000  Level FlightAware
10:07AM 23.8130 69.9280 105° East 522 601 39,000  Level FlightAware
10:08AM 23.7720 70.0770 107° East 520 598 39,000  Level FlightAware
10:09AM 23.7500 70.1580 107° East 520 598 39,000  Level FlightAware
10:10AM 23.7150 70.2900 106° East 520 598 39,000  Level FlightAware
10:10AM 23.6830 70.4100 106° East 518 596 39,000  Level FlightAware
10:11AM 23.6600 70.4960 106° East 518 596 39,000  Level FlightAware
10:12AM 23.6320 70.6030 106° East 518 596 39,000  Level FlightAware
10:13AM 23.6100 70.6880 106° East 518 596 39,000  Level FlightAware
10:13AM 23.5870 70.7740 106° East 518 596 39,000  Level FlightAware
10:14AM 23.5650 70.8590 106° East 518 596 39,000  Level FlightAware
10:15AM 23.5420 70.9440 106° East 518 596 39,000  Level FlightAware
10:15AM 23.5140 71.0510 106° East 518 596 39,000  Level FlightAware
10:16AM 23.4920 71.1370 106° East 518 596 39,000  Level FlightAware
10:17AM 23.4690 71.2220 106° East 518 596 39,000  Level FlightAware
10:17AM 23.4470 71.3070 106° East 518 596 39,000  Level FlightAware
10:18AM 23.4240 71.3930 106° East 518 596 39,000  Level FlightAware
10:19AM 23.3960 71.4990 106° East 518 596 39,000  Level FlightAware
10:20AM 23.3740 71.5850 106° East 518 596 39,000  Level FlightAware
10:22AM 23.1312 71.6598 164° South  Level Estimated
10:23AM 23.0023 71.6995 164° South  Level Estimated
10:24AM 22.8734 71.7390 164° South  Level Estimated
10:25AM 22.7444 71.7785 164° South  Level Estimated
10:26AM 22.6155 71.8179 164° South  Level Estimated
10:27AM 22.4865 71.8572 164° South  Level Estimated
10:28AM 22.3575 71.8965 164° South  Level Estimated
10:29AM 22.2286 71.9357 164° South  Level Estimated
10:30AM 22.0996 71.9748 164° South  Level Estimated
10:31AM 21.9706 72.0138 164° South  Level Estimated
10:32AM 21.8416 72.0528 164° South  Level Estimated
10:33AM 21.7125 72.0917 164° South  Level Estimated
10:34AM 21.5835 72.1305 164° South  Level Estimated
10:35AM 21.4545 72.1693 164° South  Level Estimated
10:36AM 21.3254 72.2080 164° South  Level Estimated
10:37AM 21.1964 72.2466 164° South  Level Estimated
10:38AM 21.0673 72.2851 164° South  Level Estimated
10:39AM 20.9383 72.3236 164° South  Level Estimated
10:40AM 20.8092 72.3621 164° South  Level Estimated
10:41AM 20.6801 72.4004 164° South  Level Estimated
10:42AM 20.5510 72.4387 164° South  Level Estimated
10:43AM 20.4219 72.4769 164° South  Level Estimated
10:44AM 20.2928 72.5151 165° South  Level Estimated
10:45AM 20.1637 72.5532 165° South  Level Estimated
10:46AM 20.0345 72.5912 165° South  Level Estimated
10:47AM 19.9054 72.6292 165° South  Level Estimated
10:48AM 19.7762 72.6671 165° South  Level Estimated
10:49AM 19.6471 72.7050 165° South  Level Estimated
10:50AM 19.5179 72.7428 165° South  Level Estimated
10:51AM 19.3888 72.7805 165° South  Level Estimated
10:52AM 19.2596 72.8182 165° South  Level Estimated
10:53AM 19.1304 72.8558 165° South  Level Estimated
10:54AM 19.0887 72.8679 165° South  Level Estimated
10:55AM 19.0887 72.8679 193° South  Level Estimated
10:56AM 19.0887 72.8679 193° South  Level Estimated
10:57AM 19.0887 72.8679 193° South  Level Estimated
10:58AM 19.0887 72.8679 193° South  Level Estimated
10:59AM 19.0887 72.8679 193° South  Level Estimated
11:00AM 19.0887 72.8679 193° South  Level Estimated
11:01AM 19.0887 72.8679 193° South  Level Estimated
11:02AM 19.0887 72.8679 193° South  Level Estimated
11:03AM 19.0887 72.8679 193° South  Level Estimated
11:04AM 19.0887 72.8679 193° South  Level Estimated
11:05AM 19.0887 72.8679 193° South  Level Estimated
11:06AM 19.0887 72.8679 193° South  Level Estimated
11:07AM 19.0887 72.8679 193° South  Level Estimated
11:08AM 19.0887 72.8679 193° South  Level Estimated